Observation data for Fort Lancaster on 01/17/2019      Previous  Date  Next       Current Mesonet Observations  Soil Data  Daily Summary Page  Observations in Plain Language
KLA1 170600Z 20002KT 09/09 A302 RMK A01 T00890089  RH  100%=      5-min Rain = 0
KLA1 170601Z 20001KT 09/09 A302 RMK A01 T00890089  RH  100%=      5-min Rain = 0
KLA1 170602Z 19002KT 09/09 A302 RMK A01 T00890089  RH  100%=      5-min Rain = 0
KLA1 170603Z 23002KT 09/09 A302 RMK A01 T00880088  RH  100%=      5-min Rain = 0
KLA1 170604Z 20002KT 09/09 A302 RMK A01 T00890089  RH  100%=      5-min Rain = 0
KLA1 170605Z 20003KT 09/09 A302 RMK A01 T00880088  RH  100%=      5-min Rain = 0
KLA1 170606Z 20004KT 09/09 A302 RMK A01 T00880089  RH  100%=      5-min Rain = 0
KLA1 170607Z 20003KT 09/09 A302 RMK A01 T00890089  RH  100%=      5-min Rain = 0
KLA1 170608Z 20003KT 09/09 A302 RMK A01 T00890089  RH  100%=      5-min Rain = 0
KLA1 170609Z 20004KT 09/09 A302 RMK A01 T00880088  RH  100%=      5-min Rain = 0
KLA1 170610Z 20003KT 09/09 A302 RMK A01 T00880088  RH  100%=      5-min Rain = 0
KLA1 170611Z 20003KT 09/09 A3019 RMK A01 T00880088  RH  100%=      5-min Rain = 0
KLA1 170612Z 20004KT 09/09 A3019 RMK A01 T00880088  RH  100%=      5-min Rain = 0
KLA1 170613Z 20003KT 09/09 A3019 RMK A01 T00880088  RH  100%=      5-min Rain = 0
KLA1 170614Z 20003KT 09/09 A3019 RMK A01 T00880088  RH  100%=      5-min Rain = 0
KLA1 170615Z 20004KT 09/09 A302 RMK A01 T00880088  RH  100%=      5-min Rain = 0
KLA1 170616Z 21004KT 09/09 A302 RMK A01 T00870087  RH  100%=      5-min Rain = 0
KLA1 170617Z 20004KT 09/09 A302 RMK A01 T00870087  RH  100%=      5-min Rain = 0
KLA1 170618Z 20005KT 09/09 A302 RMK A01 T00870087  RH  100%=      5-min Rain = 0
KLA1 170619Z 20004KT 09/09 A302 RMK A01 T00860086  RH  100%=      5-min Rain = 0
KLA1 170620Z 20004KT 09/09 A302 RMK A01 T00860086  RH  100%=      5-min Rain = 0
KLA1 170621Z 20004KT 09/09 A302 RMK A01 T00860086  RH  100%=      5-min Rain = 0
KLA1 170622Z 20004KT 09/09 A302 RMK A01 T00860086  RH  100%=      5-min Rain = 0
KLA1 170623Z 19003KT 09/09 A302 RMK A01 T00860086  RH  100%=      5-min Rain = 0
KLA1 170624Z 19003KT 09/09 A302 RMK A01 T00860086  RH  100%=      5-min Rain = 0
KLA1 170625Z 18004KT 09/09 A302 RMK A01 T00860086  RH  100%=      5-min Rain = 0
KLA1 170626Z 20004KT 09/09 A302 RMK A01 T00860086  RH  100%=      5-min Rain = 0
KLA1 170627Z 20004KT 09/09 A302 RMK A01 T00860086  RH  100%=      5-min Rain = 0
KLA1 170628Z 20005KT 09/09 A302 RMK A01 T00860086  RH  100%=      5-min Rain = 0
KLA1 170629Z 20005KT 09/09 A302 RMK A01 T00850085  RH  100%=      5-min Rain = 0
KLA1 170630Z 20005KT 09/09 A3019 RMK A01 T00850085  RH  100%=      5-min Rain = 0
KLA1 170631Z 21005KT 09/09 A3019 RMK A01 T00850085  RH  100%=      5-min Rain = 0
KLA1 170632Z 20005KT 09/09 A3019 RMK A01 T00850085  RH  100%=      5-min Rain = 0
KLA1 170633Z 20005KT 09/09 A3019 RMK A01 T00850085  RH  100%=      5-min Rain = 0
KLA1 170634Z 20003KT 09/09 A3019 RMK A01 T00850085  RH  100%=      5-min Rain = 0
KLA1 170635Z 20003KT 09/09 A3019 RMK A01 T00850085  RH  100%=      5-min Rain = 0
KLA1 170636Z 21004KT 09/09 A3019 RMK A01 T00850085  RH  100%=      5-min Rain = 0
KLA1 170637Z 20003KT 09/09 A302 RMK A01 T00850085  RH  100%=      5-min Rain = 0
KLA1 170638Z 20004KT 09/09 A302 RMK A01 T00850085  RH  100%=      5-min Rain = 0
KLA1 170639Z 21003KT 09/09 A302 RMK A01 T00850085  RH  100%=      5-min Rain = 0
KLA1 170640Z 21003KT 09/09 A302 RMK A01 T00850085  RH  100%=      5-min Rain = 0
KLA1 170641Z 21003KT 09/09 A302 RMK A01 T00850085  RH  100%=      5-min Rain = 0
KLA1 170642Z 22003KT 09/09 A3019 RMK A01 T00850085  RH  100%=      5-min Rain = 0
KLA1 170643Z 22004KT 08/08 A3019 RMK A01 T00840084  RH  100%=      5-min Rain = 0
KLA1 170644Z 23003KT 09/09 A3019 RMK A01 T00850085  RH  100%=      5-min Rain = 0
KLA1 170645Z 23004KT 08/08 A3019 RMK A01 T00840084  RH  100%=      5-min Rain = 0
KLA1 170646Z 23004KT 08/08 A3019 RMK A01 T00840084  RH  100%=      5-min Rain = 0
KLA1 170647Z 24003KT 08/08 A3019 RMK A01 T00840084  RH  100%=      5-min Rain = 0
KLA1 170648Z 23003KT 08/08 A3019 RMK A01 T00840084  RH  100%=      5-min Rain = 0
KLA1 170649Z 23003KT 08/08 A3019 RMK A01 T00840084  RH  100%=      5-min Rain = 0
KLA1 170650Z 23004KT 08/08 A3019 RMK A01 T00840084  RH  100%=      5-min Rain = 0
KLA1 170651Z 23003KT 08/08 A3019 RMK A01 T00840084  RH  100%=      5-min Rain = 0
KLA1 170652Z 22003KT 08/08 A3019 RMK A01 T00840084  RH  100%=      5-min Rain = 0
KLA1 170653Z 22003KT 08/08 A3019 RMK A01 T00840084  RH  100%=      5-min Rain = 0
KLA1 170654Z 21003KT 08/08 A3019 RMK A01 T00840084  RH  100%=      5-min Rain = 0
KLA1 170655Z 23003KT 08/08 A3019 RMK A01 T00840084  RH  100%=      5-min Rain = 0
KLA1 170656Z 21004KT 08/08 A3019 RMK A01 T00840084  RH  100%=      5-min Rain = 0
KLA1 170657Z 21003KT 08/08 A3019 RMK A01 T00840084  RH  100%=      5-min Rain = 0
KLA1 170658Z 20003KT 08/08 A3019 RMK A01 T00840084  RH  100%=      5-min Rain = 0
KLA1 170659Z 20004KT 08/08 A3019 RMK A01 T00840084  RH  100%=      5-min Rain = 0
KLA1 170700Z 20004KT 08/08 A3019 RMK A01 T00840084  RH  100%=      5-min Rain = 0
KLA1 170701Z 21003KT 08/08 A3019 RMK A01 T00830083  RH  100%=      5-min Rain = 0
KLA1 170702Z 20003KT 08/08 A3019 RMK A01 T00830084  RH  100%=      5-min Rain = 0
KLA1 170703Z 20003KT 08/08 A3019 RMK A01 T00830083  RH  100%=      5-min Rain = 0
KLA1 170704Z 20004KT 08/08 A3019 RMK A01 T00830083  RH  100%=      5-min Rain = 0
KLA1 170705Z 21004KT 08/08 A3019 RMK A01 T00840084  RH  100%=      5-min Rain = 0
KLA1 170706Z 21005KT 08/08 A3019 RMK A01 T00830084  RH  100%=      5-min Rain = 0
KLA1 170707Z 22005KT 08/08 A3019 RMK A01 T00840084  RH  100%=      5-min Rain = 0
KLA1 170708Z 22004KT 08/08 A3019 RMK A01 T00830083  RH  100%=      5-min Rain = 0
KLA1 170709Z 22004KT 08/08 A3019 RMK A01 T00830083  RH  100%=      5-min Rain = 0
KLA1 170710Z 22004KT 08/08 A3019 RMK A01 T00830083  RH  100%=      5-min Rain = 0
KLA1 170711Z 22004KT 08/08 A3019 RMK A01 T00830083  RH  100%=      5-min Rain = 0
KLA1 170712Z 21003KT 08/08 A3019 RMK A01 T00830083  RH  100%=      5-min Rain = 0
KLA1 170713Z 21003KT 08/08 A3019 RMK A01 T00830083  RH  100%=      5-min Rain = 0
KLA1 170714Z 21004KT 08/08 A3019 RMK A01 T00830083  RH  100%=      5-min Rain = 0
KLA1 170715Z 20005KT 08/08 A3019 RMK A01 T00830083  RH  100%=      5-min Rain = 0
KLA1 170716Z 21004KT 08/08 A3019 RMK A01 T00830083  RH  100%=      5-min Rain = 0
KLA1 170717Z 22004KT 08/08 A3019 RMK A01 T00820082  RH  100%=      5-min Rain = 0
KLA1 170718Z 22004KT 08/08 A302 RMK A01 T00820082  RH  100%=      5-min Rain = 0
KLA1 170719Z 21004KT 08/08 A3019 RMK A01 T00830083  RH  100%=      5-min Rain = 0
KLA1 170720Z 21003KT 08/08 A3019 RMK A01 T00820082  RH  100%=      5-min Rain = 0
KLA1 170721Z 20003KT 08/08 A3019 RMK A01 T00820082  RH  100%=      5-min Rain = 0
KLA1 170722Z 22004KT 08/08 A3019 RMK A01 T00820082  RH  100%=      5-min Rain = 0
KLA1 170723Z 21005KT 08/08 A3019 RMK A01 T00820082  RH  100%=      5-min Rain = 0
KLA1 170724Z 21004KT 08/08 A3019 RMK A01 T00820082  RH  100%=      5-min Rain = 0
KLA1 170725Z 22003KT 08/08 A3019 RMK A01 T00820082  RH  100%=      5-min Rain = 0
KLA1 170726Z 21003KT 08/08 A3019 RMK A01 T00810081  RH  100%=      5-min Rain = 0
KLA1 170727Z 21003KT 08/08 A3019 RMK A01 T00820082  RH  100%=      5-min Rain = 0
KLA1 170728Z 21003KT 08/08 A3019 RMK A01 T00820082  RH  100%=      5-min Rain = 0
KLA1 170729Z 22003KT 08/08 A3019 RMK A01 T00820082  RH  100%=      5-min Rain = 0
KLA1 170730Z 21003KT 08/08 A3019 RMK A01 T00820082  RH  100%=      5-min Rain = 0
KLA1 170731Z 22003KT 08/08 A3019 RMK A01 T00820082  RH  100%=      5-min Rain = 0
KLA1 170732Z 21003KT 08/08 A3019 RMK A01 T00820082  RH  100%=      5-min Rain = 0
KLA1 170733Z 23002KT 08/08 A3019 RMK A01 T00820082  RH  100%=      5-min Rain = 0
KLA1 170734Z 23001KT 08/08 A3019 RMK A01 T00820082  RH  100%=      5-min Rain = 0
KLA1 170735Z 23002KT 08/08 A3019 RMK A01 T00820082  RH  100%=      5-min Rain = 0
KLA1 170736Z 23003KT 08/08 A3019 RMK A01 T00820082  RH  100%=      5-min Rain = 0
KLA1 170737Z 24003KT 08/08 A3019 RMK A01 T00820082  RH  100%=      5-min Rain = 0
KLA1 170738Z 23002KT 08/08 A3019 RMK A01 T00810081  RH  100%=      5-min Rain = 0
KLA1 170739Z 22002KT 08/08 A3019 RMK A01 T00810081  RH  100%=      5-min Rain = 0
KLA1 170740Z 22002KT 08/08 A3019 RMK A01 T00810081  RH  100%=      5-min Rain = 0
KLA1 170741Z 21002KT 08/08 A3019 RMK A01 T00810081  RH  100%=      5-min Rain = 0
KLA1 170742Z 21002KT 08/08 A3019 RMK A01 T00810081  RH  100%=      5-min Rain = 0
KLA1 170743Z 20001KT 08/08 A3019 RMK A01 T00810081  RH  100%=      5-min Rain = 0
KLA1 170744Z 18001KT 08/08 A3019 RMK A01 T00810081  RH  100%=      5-min Rain = 0
KLA1 170745Z 18002KT 08/08 A3019 RMK A01 T00810081  RH  100%=      5-min Rain = 0
KLA1 170746Z 18002KT 08/08 A3019 RMK A01 T00810081  RH  100%=      5-min Rain = 0
KLA1 170747Z 18002KT 08/08 A3019 RMK A01 T00810081  RH  100%=      5-min Rain = 0
KLA1 170748Z 18002KT 08/08 A3019 RMK A01 T00810081  RH  100%=      5-min Rain = 0
KLA1 170749Z 18002KT 08/08 A3019 RMK A01 T00810081  RH  100%=      5-min Rain = 0
KLA1 170750Z 19002KT 08/08 A3019 RMK A01 T00810081  RH  100%=      5-min Rain = 0
KLA1 170751Z 19003KT 08/08 A3019 RMK A01 T00810082  RH  100%=      5-min Rain = 0
KLA1 170752Z 18002KT 08/08 A3019 RMK A01 T00810081  RH  100%=      5-min Rain = 0
KLA1 170753Z 17002KT 08/08 A3019 RMK A01 T00810081  RH  100%=      5-min Rain = 0
KLA1 170754Z 17002KT 08/08 A3019 RMK A01 T00810081  RH  100%=      5-min Rain = 0
KLA1 170755Z 18002KT 08/08 A3019 RMK A01 T00810081  RH  100%=      5-min Rain = 0
KLA1 170756Z 19002KT 08/08 A3019 RMK A01 T00810081  RH  100%=      5-min Rain = 0
KLA1 170757Z 20002KT 08/08 A3019 RMK A01 T00810081  RH  100%=      5-min Rain = 0
KLA1 170758Z 21002KT 08/08 A3019 RMK A01 T00810081  RH  100%=      5-min Rain = 0
KLA1 170759Z 21001KT 08/08 A3019 RMK A01 T00810081  RH  100%=      5-min Rain = 0
KLA1 170800Z 22001KT 08/08 A3019 RMK A01 T00810081  RH  100%=      5-min Rain = 0
KLA1 170801Z 20002KT 08/08 A3019 RMK A01 T00810081  RH  100%=      5-min Rain = 0
KLA1 170802Z 21002KT 08/08 A3019 RMK A01 T00810081  RH  100%=      5-min Rain = 0
KLA1 170803Z 21002KT 08/08 A3019 RMK A01 T00810081  RH  100%=      5-min Rain = 0
KLA1 170804Z 20002KT 08/08 A3019 RMK A01 T00810081  RH  100%=      5-min Rain = 0
KLA1 170805Z 20002KT 08/08 A3019 RMK A01 T00810081  RH  100%=      5-min Rain = 0
KLA1 170806Z 20003KT 08/08 A3019 RMK A01 T00810081  RH  100%=      5-min Rain = 0
KLA1 170807Z 20003KT 08/08 A3019 RMK A01 T00810081  RH  100%=      5-min Rain = 0
KLA1 170808Z 21002KT 08/08 A3019 RMK A01 T00810081  RH  100%=      5-min Rain = 0
KLA1 170809Z 22003KT 08/08 A3019 RMK A01 T00810081  RH  100%=      5-min Rain = 0
KLA1 170810Z 24002KT 08/08 A3019 RMK A01 T00810081  RH  100%=      5-min Rain = 0
KLA1 170811Z 24002KT 08/08 A3019 RMK A01 T00810081  RH  100%=      5-min Rain = 0
KLA1 170812Z 24004KT 08/08 A3019 RMK A01 T00810081  RH  100%=      5-min Rain = 0
KLA1 170813Z 24004KT 08/08 A3019 RMK A01 T00810081  RH  100%=      5-min Rain = 0
KLA1 170814Z 25005KT 08/08 A3019 RMK A01 T00800080  RH  100%=      5-min Rain = 0
KLA1 170815Z 24004KT 08/08 A3019 RMK A01 T00800080  RH  100%=      5-min Rain = 0
KLA1 170816Z 24005KT 08/08 A3019 RMK A01 T00800080  RH  100%=      5-min Rain = 0
KLA1 170817Z 24004KT 08/08 A3019 RMK A01 T00790080  RH  100%=      5-min Rain = 0
KLA1 170818Z 25005KT 08/08 A3019 RMK A01 T00790079  RH  100%=      5-min Rain = 0
KLA1 170819Z 24004KT 08/08 A3019 RMK A01 T00790079  RH  100%=      5-min Rain = 0
KLA1 170820Z 24003KT 08/08 A3019 RMK A01 T00790079  RH  100%=      5-min Rain = 0
KLA1 170821Z 25004KT 08/08 A3019 RMK A01 T00790079  RH  100%=      5-min Rain = 0
KLA1 170822Z 25005KT 08/08 A3019 RMK A01 T00790079  RH  100%=      5-min Rain = 0
KLA1 170823Z 25005KT 08/08 A3019 RMK A01 T00780078  RH  100%=      5-min Rain = 0
KLA1 170824Z 25004KT 08/08 A3019 RMK A01 T00780078  RH  100%=      5-min Rain = 0
KLA1 170825Z 24004KT 08/08 A3019 RMK A01 T00780078  RH  100%=      5-min Rain = 0
KLA1 170826Z 25005KT 08/08 A3019 RMK A01 T00780078  RH  100%=      5-min Rain = 0
KLA1 170827Z 25004KT 08/08 A3019 RMK A01 T00780078  RH  100%=      5-min Rain = 0
KLA1 170828Z 25004KT 08/08 A3019 RMK A01 T00780078  RH  100%=      5-min Rain = 0
KLA1 170829Z 25005KT 08/08 A3019 RMK A01 T00780078  RH  100%=      5-min Rain = 0
KLA1 170830Z 25004KT 08/08 A3019 RMK A01 T00780078  RH  100%=      5-min Rain = 0
KLA1 170831Z 25004KT 08/08 A3019 RMK A01 T00780078  RH  100%=      5-min Rain = 0
KLA1 170832Z 26004KT 08/08 A3019 RMK A01 T00780078  RH  100%=      5-min Rain = 0
KLA1 170833Z 26004KT 08/08 A3019 RMK A01 T00780078  RH  100%=      5-min Rain = 0
KLA1 170834Z 26004KT 08/08 A3019 RMK A01 T00780078  RH  100%=      5-min Rain = 0
KLA1 170835Z 26004KT 08/08 A3019 RMK A01 T00780078  RH  100%=      5-min Rain = 0
KLA1 170836Z 26003KT 08/08 A3019 RMK A01 T00780078  RH  100%=      5-min Rain = 0
KLA1 170837Z 26004KT 08/08 A3019 RMK A01 T00780078  RH  100%=      5-min Rain = 0
KLA1 170838Z 25004KT 08/08 A3019 RMK A01 T00780078  RH  100%=      5-min Rain = 0
KLA1 170839Z 25004KT 08/08 A3019 RMK A01 T00780078  RH  100%=      5-min Rain = 0
KLA1 170840Z 25004KT 08/08 A3019 RMK A01 T00780078  RH  100%=      5-min Rain = 0
KLA1 170841Z 25003KT 08/08 A3019 RMK A01 T00770078  RH  100%=      5-min Rain = 0
KLA1 170842Z 25004KT 08/08 A3019 RMK A01 T00770077  RH  100%=      5-min Rain = 0
KLA1 170843Z 26003KT 08/08 A3019 RMK A01 T00770077  RH  100%=      5-min Rain = 0
KLA1 170844Z 25004KT 08/08 A3019 RMK A01 T00770077  RH  100%=      5-min Rain = 0
KLA1 170845Z 25004KT 08/08 A3019 RMK A01 T00780078  RH  100%=      5-min Rain = 0
KLA1 170846Z 25004KT 08/08 A3019 RMK A01 T00770077  RH  100%=      5-min Rain = 0
KLA1 170847Z 26003KT 08/08 A3019 RMK A01 T00770077  RH  100%=      5-min Rain = 0
KLA1 170848Z 26003KT 08/08 A3019 RMK A01 T00770077  RH  100%=      5-min Rain = 0
KLA1 170849Z 26003KT 08/08 A3019 RMK A01 T00770077  RH  100%=      5-min Rain = 0
KLA1 170850Z 25004KT 08/08 A3019 RMK A01 T00770077  RH  100%=      5-min Rain = 0
KLA1 170851Z 25004KT 08/08 A3019 RMK A01 T00770077  RH  100%=      5-min Rain = 0
KLA1 170852Z 26002KT 08/08 A3019 RMK A01 T00760076  RH  100%=      5-min Rain = 0
KLA1 170853Z 25002KT 08/08 A3019 RMK A01 T00760076  RH  100%=      5-min Rain = 0
KLA1 170854Z 21003KT 08/08 A3019 RMK A01 T00760076  RH  100%=      5-min Rain = 0
KLA1 170855Z 21003KT 08/08 A3019 RMK A01 T00760076  RH  100%=      5-min Rain = 0
KLA1 170856Z 22002KT 08/08 A3019 RMK A01 T00760076  RH  100%=      5-min Rain = 0
KLA1 170857Z 23002KT 08/08 A3019 RMK A01 T00760076  RH  100%=      5-min Rain = 0
KLA1 170858Z 23002KT 08/08 A3019 RMK A01 T00760076  RH  100%=      5-min Rain = 0
KLA1 170859Z 22003KT 08/08 A3019 RMK A01 T00760076  RH  100%=      5-min Rain = 0
KLA1 170900Z 22003KT 08/08 A3019 RMK A01 T00760076  RH  100%=      5-min Rain = 0
KLA1 170901Z 23003KT 08/08 A3019 RMK A01 T00760076  RH  100%=      5-min Rain = 0
KLA1 170902Z 24004KT 08/08 A3019 RMK A01 T00770077  RH  100%=      5-min Rain = 0
KLA1 170903Z 25003KT 08/08 A3019 RMK A01 T00760076  RH  100%=      5-min Rain = 0
KLA1 170904Z 26003KT 08/08 A3019 RMK A01 T00770077  RH  100%=      5-min Rain = 0
KLA1 170905Z 27004KT 08/08 A3019 RMK A01 T00760076  RH  100%=      5-min Rain = 0
KLA1 170906Z 26003KT 08/08 A3019 RMK A01 T00770077  RH  100%=      5-min Rain = 0
KLA1 170907Z 27003KT 08/08 A3019 RMK A01 T00770077  RH  100%=      5-min Rain = 0
KLA1 170908Z 27003KT 08/08 A3019 RMK A01 T00760076  RH  100%=      5-min Rain = 0
KLA1 170909Z 25002KT 08/08 A3019 RMK A01 T00760076  RH  100%=      5-min Rain = 0
KLA1 170910Z 26002KT 08/08 A3019 RMK A01 T00760076  RH  100%=      5-min Rain = 0
KLA1 170911Z 26001KT 08/08 A3019 RMK A01 T00760076  RH  100%=      5-min Rain = 0
KLA1 170912Z 27002KT 08/08 A3019 RMK A01 T00760076  RH  100%=      5-min Rain = 0
KLA1 170913Z 26002KT 08/08 A3019 RMK A01 T00760076  RH  100%=      5-min Rain = 0
KLA1 170914Z 25003KT 08/08 A3019 RMK A01 T00760076  RH  100%=      5-min Rain = 0
KLA1 170915Z 25003KT 08/08 A3019 RMK A01 T00760076  RH  100%=      5-min Rain = 0
KLA1 170916Z 26003KT 08/08 A302 RMK A01 T00760076  RH  100%=      5-min Rain = 0
KLA1 170917Z 25002KT 08/08 A302 RMK A01 T00760076  RH  100%=      5-min Rain = 0
KLA1 170918Z 25002KT 08/08 A302 RMK A01 T00760076  RH  100%=      5-min Rain = 0
KLA1 170919Z 26003KT 08/08 A302 RMK A01 T00760076  RH  100%=      5-min Rain = 0
KLA1 170920Z 26003KT 08/08 A302 RMK A01 T00760076  RH  100%=      5-min Rain = 0
KLA1 170921Z 26002KT 08/08 A302 RMK A01 T00760076  RH  100%=      5-min Rain = 0
KLA1 170922Z 28002KT 08/08 A302 RMK A01 T00760076  RH  100%=      5-min Rain = 0
KLA1 170923Z 27003KT 08/08 A302 RMK A01 T00760076  RH  100%=      5-min Rain = 0
KLA1 170924Z 27003KT 08/08 A302 RMK A01 T00760076  RH  100%=      5-min Rain = 0
KLA1 170925Z 28003KT 08/08 A302 RMK A01 T00760076  RH  100%=      5-min Rain = 0
KLA1 170926Z 28003KT 08/08 A302 RMK A01 T00760076  RH  100%=      5-min Rain = 0
KLA1 170927Z 27002KT 08/08 A302 RMK A01 T00750075  RH  100%=      5-min Rain = 0
KLA1 170928Z 28002KT 08/08 A302 RMK A01 T00750075  RH  100%=      5-min Rain = 0
KLA1 170929Z 27002KT 08/08 A302 RMK A01 T00750075  RH  100%=      5-min Rain = 0
KLA1 170930Z 28002KT 08/08 A302 RMK A01 T00750075  RH  100%=      5-min Rain = 0
KLA1 170931Z 28002KT 08/08 A302 RMK A01 T00750075  RH  100%=      5-min Rain = 0
KLA1 170932Z 29002KT 08/08 A302 RMK A01 T00750075  RH  100%=      5-min Rain = 0
KLA1 170933Z 29003KT 08/08 A302 RMK A01 T00750075  RH  100%=      5-min Rain = 0
KLA1 170934Z 28003KT 08/08 A302 RMK A01 T00750075  RH  100%=      5-min Rain = 0
KLA1 170935Z 28003KT 08/08 A302 RMK A01 T00750075  RH  100%=      5-min Rain = 0
KLA1 170936Z 27003KT 08/08 A302 RMK A01 T00750075  RH  100%=      5-min Rain = 0
KLA1 170937Z 28004KT 07/07 A302 RMK A01 T00740074  RH  100%=      5-min Rain = 0
KLA1 170938Z 27003KT 07/07 A302 RMK A01 T00740074  RH  100%=      5-min Rain = 0
KLA1 170939Z 27003KT 07/07 A302 RMK A01 T00740074  RH  100%=      5-min Rain = 0
KLA1 170940Z 27003KT 07/07 A302 RMK A01 T00740074  RH  100%=      5-min Rain = 0
KLA1 170941Z 27002KT 07/07 A302 RMK A01 T00740074  RH  100%=      5-min Rain = 0
KLA1 170942Z 28001KT 07/07 A302 RMK A01 T00740074  RH  100%=      5-min Rain = 0
KLA1 170943Z 27002KT 07/07 A302 RMK A01 T00740074  RH  100%=      5-min Rain = 0
KLA1 170944Z 27001KT 07/07 A302 RMK A01 T00740074  RH  100%=      5-min Rain = 0
KLA1 170945Z 26002KT 07/07 A302 RMK A01 T00740074  RH  100%=      5-min Rain = 0
KLA1 170946Z 25002KT 07/07 A302 RMK A01 T00740074  RH  100%=      5-min Rain = 0
KLA1 170947Z 26002KT 07/07 A302 RMK A01 T00740074  RH  100%=      5-min Rain = 0
KLA1 170948Z 27002KT 07/07 A302 RMK A01 T00740074  RH  100%=      5-min Rain = 0
KLA1 170949Z 26002KT 07/07 A302 RMK A01 T00740074  RH  100%=      5-min Rain = 0
KLA1 170950Z 27002KT 07/07 A302 RMK A01 T00740074  RH  100%=      5-min Rain = 0
KLA1 170951Z 26002KT 07/07 A302 RMK A01 T00740074  RH  100%=      5-min Rain = 0
KLA1 170952Z 26002KT 07/07 A302 RMK A01 T00740074  RH  100%=      5-min Rain = 0
KLA1 170953Z 25002KT 07/07 A302 RMK A01 T00740074  RH  100%=      5-min Rain = 0
KLA1 170954Z 25002KT 07/07 A302 RMK A01 T00740074  RH  100%=      5-min Rain = 0
KLA1 170955Z 26001KT 07/07 A302 RMK A01 T00740074  RH  100%=      5-min Rain = 0
KLA1 170956Z 26003KT 07/07 A302 RMK A01 T00740074  RH  100%=      5-min Rain = 0
KLA1 170957Z 25003KT 07/07 A302 RMK A01 T00740074  RH  100%=      5-min Rain = 0
KLA1 170958Z 27002KT 07/07 A302 RMK A01 T00740074  RH  100%=      5-min Rain = 0
KLA1 170959Z 26001KT 07/07 A302 RMK A01 T00730073  RH  100%=      5-min Rain = 0
KLA1 171000Z 27001KT 07/07 A302 RMK A01 T00730073  RH  100%=      5-min Rain = 0
KLA1 171001Z 28000KT 07/07 A302 RMK A01 T00730073  RH  100%=      5-min Rain = 0
KLA1 171002Z 27001KT 07/07 A302 RMK A01 T00730073  RH  100%=      5-min Rain = 0
KLA1 171003Z 27001KT 07/07 A302 RMK A01 T00730073  RH  100%=      5-min Rain = 0
KLA1 171004Z 28001KT 07/07 A302 RMK A01 T00730073  RH  100%=      5-min Rain = 0
KLA1 171005Z 29001KT 07/07 A302 RMK A01 T00730073  RH  100%=      5-min Rain = 0
KLA1 171006Z 30002KT 07/07 A302 RMK A01 T00730073  RH  100%=      5-min Rain = 0
KLA1 171007Z 30002KT 07/07 A302 RMK A01 T00730073  RH  100%=      5-min Rain = 0
KLA1 171008Z 29003KT 07/07 A302 RMK A01 T00730073  RH  100%=      5-min Rain = 0
KLA1 171009Z 29004KT 07/07 A302 RMK A01 T00730073  RH  100%=      5-min Rain = 0
KLA1 171010Z 29003KT 07/07 A302 RMK A01 T00730074  RH  100%=      5-min Rain = 0
KLA1 171011Z 29003KT 07/07 A302 RMK A01 T00740074  RH  100%=      5-min Rain = 0
KLA1 171012Z 28003KT 07/07 A302 RMK A01 T00740074  RH  100%=      5-min Rain = 0
KLA1 171013Z 29002KT 07/07 A302 RMK A01 T00730073  RH  100%=      5-min Rain = 0
KLA1 171014Z 29002KT 07/07 A302 RMK A01 T00720072  RH  100%=      5-min Rain = 0
KLA1 171015Z 30003KT 07/07 A302 RMK A01 T00720072  RH  100%=      5-min Rain = 0
KLA1 171016Z 31003KT 07/07 A302 RMK A01 T00720072  RH  100%=      5-min Rain = 0
KLA1 171017Z 31003KT 07/07 A302 RMK A01 T00730073  RH  100%=      5-min Rain = 0
KLA1 171018Z 32004KT 07/07 A302 RMK A01 T00720072  RH  100%=      5-min Rain = 0
KLA1 171019Z 33003KT 07/07 A302 RMK A01 T00720072  RH  100%=      5-min Rain = 0
KLA1 171020Z 31003KT 07/07 A302 RMK A01 T00720072  RH  100%=      5-min Rain = 0
KLA1 171021Z 29003KT 07/07 A302 RMK A01 T00720072  RH  100%=      5-min Rain = 0
KLA1 171022Z 28003KT 07/07 A302 RMK A01 T00710071  RH  100%=      5-min Rain = 0
KLA1 171023Z 30003KT 07/07 A302 RMK A01 T00710071  RH  100%=      5-min Rain = 0
KLA1 171024Z 28003KT 07/07 A302 RMK A01 T00720072  RH  100%=      5-min Rain = 0
KLA1 171025Z 29003KT 07/07 A302 RMK A01 T00720072  RH  100%=      5-min Rain = 0
KLA1 171026Z 29001KT 07/07 A302 RMK A01 T00710071  RH  100%=      5-min Rain = 0
KLA1 171027Z 30002KT 07/07 A3019 RMK A01 T00710071  RH  100%=      5-min Rain = 0
KLA1 171028Z 27002KT 07/07 A3019 RMK A01 T00700070  RH  100%=      5-min Rain = 0
KLA1 171029Z 28003KT 07/07 A3019 RMK A01 T00700070  RH  100%=      5-min Rain = 0
KLA1 171030Z 28002KT 07/07 A3019 RMK A01 T00700070  RH  100%=      5-min Rain = 0
KLA1 171031Z 28003KT 07/07 A3019 RMK A01 T00700070  RH  100%=      5-min Rain = 0
KLA1 171032Z 27003KT 07/07 A3019 RMK A01 T00700070  RH  100%=      5-min Rain = 0
KLA1 171033Z 29002KT 07/07 A3019 RMK A01 T00700070  RH  100%=      5-min Rain = 0
KLA1 171034Z 26003KT 07/07 A3019 RMK A01 T00700070  RH  100%=      5-min Rain = 0
KLA1 171035Z 28004KT 07/07 A3019 RMK A01 T00700070  RH  100%=      5-min Rain = 0
KLA1 171036Z 28003KT 07/07 A3019 RMK A01 T00700070  RH  100%=      5-min Rain = 0
KLA1 171037Z 27002KT 07/07 A3019 RMK A01 T00690069  RH  100%=      5-min Rain = 0
KLA1 171038Z 26003KT 07/07 A3019 RMK A01 T00690069  RH  100%=      5-min Rain = 0
KLA1 171039Z 26003KT 07/07 A3019 RMK A01 T00690069  RH  100%=      5-min Rain = 0
KLA1 171040Z 26003KT 07/07 A3019 RMK A01 T00690069  RH  100%=      5-min Rain = 0
KLA1 171041Z 27003KT 07/07 A3019 RMK A01 T00680068  RH  100%=      5-min Rain = 0
KLA1 171042Z 30002KT 07/07 A3019 RMK A01 T00680068  RH  100%=      5-min Rain = 0
KLA1 171043Z 30002KT 07/07 A3019 RMK A01 T00680068  RH  100%=      5-min Rain = 0
KLA1 171044Z 30003KT 07/07 A3019 RMK A01 T00680068  RH  100%=      5-min Rain = 0
KLA1 171045Z 31003KT 07/07 A3019 RMK A01 T00680068  RH  100%=      5-min Rain = 0
KLA1 171046Z 28003KT 07/07 A3019 RMK A01 T00690069  RH  100%=      5-min Rain = 0
KLA1 171047Z 27002KT 07/07 A3019 RMK A01 T00680068  RH  100%=      5-min Rain = 0
KLA1 171048Z 26002KT 07/07 A3019 RMK A01 T00680068  RH  100%=      5-min Rain = 0
KLA1 171049Z 29000KT 07/07 A3019 RMK A01 T00680068  RH  100%=      5-min Rain = 0
KLA1 171050Z 29000KT 07/07 A3019 RMK A01 T00680068  RH  100%=      5-min Rain = 0
KLA1 171051Z 29002KT 07/07 A3019 RMK A01 T00680068  RH  100%=      5-min Rain = 0
KLA1 171052Z 30001KT 07/07 A3019 RMK A01 T00680068  RH  100%=      5-min Rain = 0
KLA1 171053Z 29001KT 07/07 A3019 RMK A01 T00680068  RH  100%=      5-min Rain = 0
KLA1 171054Z 29001KT 07/07 A3019 RMK A01 T00680068  RH  100%=      5-min Rain = 0
KLA1 171055Z 28001KT 07/07 A3019 RMK A01 T00680068  RH  100%=      5-min Rain = 0
KLA1 171056Z 27002KT 07/07 A3019 RMK A01 T00680068  RH  100%=      5-min Rain = 0
KLA1 171057Z 32002KT 07/07 A3019 RMK A01 T00680068  RH  100%=      5-min Rain = 0
KLA1 171058Z 31003KT 07/07 A3019 RMK A01 T00690069  RH  100%=      5-min Rain = 0
KLA1 171059Z 30003KT 07/07 A3019 RMK A01 T00690069  RH  100%=      5-min Rain = 0
KLA1 171100Z 31002KT 07/07 A3019 RMK A01 T00690069  RH  100%=      5-min Rain = 0
KLA1 171101Z 32003KT 07/07 A3019 RMK A01 T00690069  RH  100%=      5-min Rain = 0
KLA1 171102Z 32003KT 07/07 A3019 RMK A01 T00690069  RH  100%=      5-min Rain = 0
KLA1 171103Z 32002KT 07/07 A3019 RMK A01 T00680068  RH  100%=      5-min Rain = 0
KLA1 171104Z 32002KT 07/07 A3019 RMK A01 T00680068  RH  100%=      5-min Rain = 0
KLA1 171105Z 33002KT 07/07 A3019 RMK A01 T00680068  RH  100%=      5-min Rain = 0
KLA1 171106Z 33001KT 07/07 A3019 RMK A01 T00680068  RH  100%=      5-min Rain = 0
KLA1 171107Z 34001KT 07/07 A3019 RMK A01 T00680068  RH  100%=      5-min Rain = 0
KLA1 171108Z 35001KT 07/07 A3019 RMK A01 T00680068  RH  100%=      5-min Rain = 0
KLA1 171109Z 35000KT 07/07 A3019 RMK A01 T00680068  RH  100%=      5-min Rain = 0
KLA1 171110Z 00000KT 07/07 A3019 RMK A01 T00680068  RH  100%=      5-min Rain = 0
KLA1 171111Z 00000KT 07/07 A3019 RMK A01 T00680068  RH  100%=      5-min Rain = 0
KLA1 171112Z 00000KT 07/07 A3019 RMK A01 T00680068  RH  100%=      5-min Rain = 0
KLA1 171113Z 00000KT 07/07 A3019 RMK A01 T00680068  RH  100%=      5-min Rain = 0
KLA1 171114Z 21000KT 07/07 A3019 RMK A01 T00680068  RH  100%=      5-min Rain = 0
KLA1 171115Z 23002KT 07/07 A3019 RMK A01 T00680068  RH  100%=      5-min Rain = 0
KLA1 171116Z 24002KT 07/07 A3019 RMK A01 T00680068  RH  100%=      5-min Rain = 0
KLA1 171117Z 24002KT 07/07 A3019 RMK A01 T00680068  RH  100%=      5-min Rain = 0
KLA1 171118Z 24002KT 07/07 A3019 RMK A01 T00680068  RH  100%=      5-min Rain = 0
KLA1 171119Z 25003KT 07/07 A3019 RMK A01 T00680068  RH  100%=      5-min Rain = 0
KLA1 171120Z 25002KT 07/07 A3019 RMK A01 T00680068  RH  100%=      5-min Rain = 0
KLA1 171121Z 24002KT 07/07 A3019 RMK A01 T00680068  RH  100%=      5-min Rain = 0
KLA1 171122Z 23001KT 07/07 A3019 RMK A01 T00670067  RH  100%=      5-min Rain = 0
KLA1 171123Z 23000KT 07/07 A3019 RMK A01 T00670067  RH  100%=      5-min Rain = 0
KLA1 171124Z 18000KT 07/07 A3019 RMK A01 T00670067  RH  100%=      5-min Rain = 0
KLA1 171125Z 18001KT 07/07 A3019 RMK A01 T00670067  RH  100%=      5-min Rain = 0
KLA1 171126Z 20001KT 07/07 A3019 RMK A01 T00670067  RH  100%=      5-min Rain = 0
KLA1 171127Z 19000KT 07/07 A3019 RMK A01 T00670067  RH  100%=      5-min Rain = 0
KLA1 171128Z 20000KT 07/07 A3019 RMK A01 T00670067  RH  100%=      5-min Rain = 0
KLA1 171129Z 23001KT 07/07 A3019 RMK A01 T00670067  RH  100%=      5-min Rain = 0
KLA1 171130Z 23002KT 07/07 A3019 RMK A01 T00670067  RH  100%=      5-min Rain = 0
KLA1 171131Z 21001KT 07/07 A3019 RMK A01 T00670067  RH  100%=      5-min Rain = 0
KLA1 171132Z 19001KT 07/07 A3019 RMK A01 T00660066  RH  100%=      5-min Rain = 0
KLA1 171133Z 20001KT 07/07 A3019 RMK A01 T00660066  RH  100%=      5-min Rain = 0
KLA1 171134Z 22001KT 07/07 A3019 RMK A01 T00660066  RH  100%=      5-min Rain = 0
KLA1 171135Z 22003KT 07/07 A3019 RMK A01 T00660066  RH  100%=      5-min Rain = 0
KLA1 171136Z 22002KT 07/07 A3019 RMK A01 T00660066  RH  100%=      5-min Rain = 0
KLA1 171137Z 22002KT 07/07 A3019 RMK A01 T00660066  RH  100%=      5-min Rain = 0
KLA1 171138Z 22001KT 07/07 A3019 RMK A01 T00660066  RH  100%=      5-min Rain = 0
KLA1 171139Z 21001KT 07/07 A3019 RMK A01 T00660066  RH  100%=      5-min Rain = 0
KLA1 171140Z 19001KT 07/07 A3019 RMK A01 T00660066  RH  100%=      5-min Rain = 0
KLA1 171141Z 20002KT 07/07 A3019 RMK A01 T00660066  RH  100%=      5-min Rain = 0
KLA1 171142Z 20001KT 07/07 A3019 RMK A01 T00660066  RH  100%=      5-min Rain = 0
KLA1 171143Z 21002KT 07/07 A3019 RMK A01 T00660066  RH  100%=      5-min Rain = 0
KLA1 171144Z 21002KT 07/07 A3019 RMK A01 T00660066  RH  100%=      5-min Rain = 0
KLA1 171145Z 21001KT 07/07 A3019 RMK A01 T00660066  RH  100%=      5-min Rain = 0
KLA1 171146Z 21002KT 07/07 A3019 RMK A01 T00660066  RH  100%=      5-min Rain = 0
KLA1 171147Z 21002KT 07/07 A3019 RMK A01 T00660066  RH  100%=      5-min Rain = 0
KLA1 171148Z 22002KT 07/07 A3019 RMK A01 T00660066  RH  100%=      5-min Rain = 0
KLA1 171149Z 21001KT 07/07 A3019 RMK A01 T00650065  RH  100%=      5-min Rain = 0
KLA1 171150Z 20001KT 07/07 A3019 RMK A01 T00650065  RH  100%=      5-min Rain = 0
KLA1 171151Z 21001KT 07/07 A3019 RMK A01 T00650065  RH  100%=      5-min Rain = 0
KLA1 171152Z 24002KT 07/07 A3019 RMK A01 T00650065  RH  100%=      5-min Rain = 0
KLA1 171153Z 24001KT 07/07 A3019 RMK A01 T00650065  RH  100%=      5-min Rain = 0
KLA1 171154Z 23001KT 07/07 A3019 RMK A01 T00650065  RH  100%=      5-min Rain = 0
KLA1 171155Z 22001KT 07/07 A3019 RMK A01 T00650065  RH  100%=      5-min Rain = 0
KLA1 171156Z 21001KT 07/07 A3019 RMK A01 T00650065  RH  100%=      5-min Rain = 0
KLA1 171157Z 23001KT 07/07 A3019 RMK A01 T00650065  RH  100%=      5-min Rain = 0
KLA1 171158Z 23001KT 07/07 A3019 RMK A01 T00660066  RH  100%=      5-min Rain = 0
KLA1 171159Z 23000KT 07/07 A3019 RMK A01 T00660066  RH  100%=      5-min Rain = 0
KLA1 171200Z 27001KT 07/07 A3019 RMK A01 T00650065  RH  100%=      5-min Rain = 0
KLA1 171201Z 24001KT 07/07 A3019 RMK A01 T00650065  RH  100%=      5-min Rain = 0
KLA1 171202Z 22001KT 07/07 A3019 RMK A01 T00650065  RH  100%=      5-min Rain = 0
KLA1 171203Z 21002KT 07/07 A3019 RMK A01 T00650065  RH  100%=      5-min Rain = 0
KLA1 171204Z 22002KT 07/07 A3019 RMK A01 T00650065  RH  100%=      5-min Rain = 0
KLA1 171205Z 21002KT 07/07 A3019 RMK A01 T00650065  RH  100%=      5-min Rain = 0
KLA1 171206Z 21001KT 07/07 A3019 RMK A01 T00650065  RH  100%=      5-min Rain = 0
KLA1 171207Z 22002KT 07/07 A3019 RMK A01 T00650065  RH  100%=      5-min Rain = 0
KLA1 171208Z 23001KT 06/06 A3019 RMK A01 T00640064  RH  100%=      5-min Rain = 0
KLA1 171209Z 25001KT 07/07 A3019 RMK A01 T00650065  RH  100%=      5-min Rain = 0
KLA1 171210Z 30001KT 07/07 A302 RMK A01 T00650065  RH  100%=      5-min Rain = 0
KLA1 171211Z 34002KT 07/07 A302 RMK A01 T00650065  RH  100%=      5-min Rain = 0
KLA1 171212Z 35002KT 06/06 A302 RMK A01 T00640064  RH  100%=      5-min Rain = 0
KLA1 171213Z 35002KT 06/06 A302 RMK A01 T00640064  RH  100%=      5-min Rain = 0
KLA1 171214Z 35002KT 06/06 A302 RMK A01 T00630063  RH  100%=      5-min Rain = 0
KLA1 171215Z 35003KT 06/06 A302 RMK A01 T00630063  RH  100%=      5-min Rain = 0
KLA1 171216Z 35003KT 06/06 A3019 RMK A01 T00630063  RH  100%=      5-min Rain = 0
KLA1 171217Z 00003KT 06/06 A3019 RMK A01 T00620062  RH  100%=      5-min Rain = 0
KLA1 171218Z 00003KT 06/06 A3019 RMK A01 T00620062  RH  100%=      5-min Rain = 0
KLA1 171219Z 01003KT 06/06 A3019 RMK A01 T00610061  RH  100%=      5-min Rain = 0
KLA1 171220Z 00003KT 06/06 A3019 RMK A01 T00610061  RH  100%=      5-min Rain = 0
KLA1 171221Z 01003KT 06/06 A3019 RMK A01 T00610061  RH  100%=      5-min Rain = 0
KLA1 171222Z 01003KT 06/06 A3019 RMK A01 T00620062  RH  100%=      5-min Rain = 0
KLA1 171223Z 01003KT 06/06 A3019 RMK A01 T00610061  RH  100%=      5-min Rain = 0
KLA1 171224Z 00003KT 06/06 A3019 RMK A01 T00610061  RH  100%=      5-min Rain = 0
KLA1 171225Z 00003KT 06/06 A3019 RMK A01 T00610061  RH  100%=      5-min Rain = 0
KLA1 171226Z 00002KT 06/06 A3019 RMK A01 T00600060  RH  100%=      5-min Rain = 0
KLA1 171227Z 00003KT 06/06 A3019 RMK A01 T00600060  RH  100%=      5-min Rain = 0
KLA1 171228Z 00002KT 06/06 A3019 RMK A01 T00600060  RH  100%=      5-min Rain = 0
KLA1 171229Z 00001KT 06/06 A3019 RMK A01 T00600060  RH  100%=      5-min Rain = 0
KLA1 171230Z 00002KT 06/06 A3019 RMK A01 T00600060  RH  100%=      5-min Rain = 0
KLA1 171231Z 00001KT 06/06 A3019 RMK A01 T00600060  RH  100%=      5-min Rain = 0
KLA1 171232Z 01002KT 06/06 A3019 RMK A01 T00600060  RH  100%=      5-min Rain = 0
KLA1 171233Z 36001KT 06/06 A3019 RMK A01 T00600060  RH  100%=      5-min Rain = 0
KLA1 171234Z 34001KT 06/06 A3019 RMK A01 T00600060  RH  100%=      5-min Rain = 0
KLA1 171235Z 33001KT 06/06 A3019 RMK A01 T00600060  RH  100%=      5-min Rain = 0
KLA1 171236Z 33001KT 06/06 A3019 RMK A01 T00600060  RH  100%=      5-min Rain = 0
KLA1 171237Z 31002KT 06/06 A3019 RMK A01 T00600060  RH  100%=      5-min Rain = 0
KLA1 171238Z 31002KT 06/06 A3019 RMK A01 T00600060  RH  100%=      5-min Rain = 0
KLA1 171239Z 33001KT 06/06 A3019 RMK A01 T00600060  RH  100%=      5-min Rain = 0
KLA1 171240Z 31003KT 06/06 A3019 RMK A01 T00610060  RH  100%=      5-min Rain = 0
KLA1 171241Z 31002KT 06/06 A3019 RMK A01 T00600060  RH  100%=      5-min Rain = 0
KLA1 171242Z 30002KT 06/06 A3019 RMK A01 T00600060  RH  100%=      5-min Rain = 0
KLA1 171243Z 30002KT 06/06 A3019 RMK A01 T00590059  RH  100%=      5-min Rain = 0
KLA1 171244Z 30001KT 06/06 A3019 RMK A01 T00580058  RH  100%=      5-min Rain = 0
KLA1 171245Z 00000KT 06/06 A3019 RMK A01 T00580058  RH  100%=      5-min Rain = 0
KLA1 171246Z 00000KT 06/06 A3019 RMK A01 T00580058  RH  100%=      5-min Rain = 0
KLA1 171247Z 00001KT 06/06 A3019 RMK A01 T00580058  RH  100%=      5-min Rain = 0
KLA1 171248Z 00000KT 06/06 A302 RMK A01 T00580058  RH  100%=      5-min Rain = 0
KLA1 171249Z 36000KT 06/06 A302 RMK A01 T00570057  RH  100%=      5-min Rain = 0
KLA1 171250Z 32000KT 06/06 A302 RMK A01 T00570057  RH  100%=      5-min Rain = 0
KLA1 171251Z 34000KT 06/06 A302 RMK A01 T00570057  RH  100%=      5-min Rain = 0
KLA1 171252Z 35000KT 06/06 A302 RMK A01 T00570057  RH  100%=      5-min Rain = 0
KLA1 171253Z 35000KT 06/06 A302 RMK A01 T00570057  RH  100%=      5-min Rain = 0
KLA1 171254Z 33000KT 06/06 A302 RMK A01 T00570057  RH  100%=      5-min Rain = 0
KLA1 171255Z 33000KT 06/06 A302 RMK A01 T00570057  RH  100%=      5-min Rain = 0
KLA1 171256Z 00000KT 06/06 A302 RMK A01 T00570057  RH  100%=      5-min Rain = 0
KLA1 171257Z 00000KT 06/06 A302 RMK A01 T00570057  RH  100%=      5-min Rain = 0
KLA1 171258Z 32000KT 06/06 A302 RMK A01 T00570057  RH  100%=      5-min Rain = 0
KLA1 171259Z 32002KT 06/06 A302 RMK A01 T00570057  RH  100%=      5-min Rain = 0
KLA1 171300Z 33001KT 06/06 A302 RMK A01 T00570057  RH  100%=      5-min Rain = 0
KLA1 171301Z 34001KT 06/06 A302 RMK A01 T00580057  RH  100%=      5-min Rain = 0
KLA1 171302Z 34000KT 06/06 A302 RMK A01 T00570057  RH  100%=      5-min Rain = 0
KLA1 171303Z 00000KT 06/06 A302 RMK A01 T00570057  RH  100%=      5-min Rain = 0
KLA1 171304Z 00000KT 06/06 A302 RMK A01 T00570057  RH  100%=      5-min Rain = 0
KLA1 171305Z 00000KT 06/06 A302 RMK A01 T00570057  RH  100%=      5-min Rain = 0
KLA1 171306Z 00000KT 06/06 A302 RMK A01 T00570057  RH  100%=      5-min Rain = 0
KLA1 171307Z 00000KT 06/06 A3021 RMK A01 T00570057  RH  100%=      5-min Rain = 0
KLA1 171308Z 15000KT 06/06 A3021 RMK A01 T00570057  RH  100%=      5-min Rain = 0
KLA1 171309Z 15001KT 06/06 A3021 RMK A01 T00570057  RH  100%=      5-min Rain = 0
KLA1 171310Z 00000KT 06/06 A3021 RMK A01 T00570057  RH  100%=      5-min Rain = 0
KLA1 171311Z 12000KT 06/06 A3021 RMK A01 T00570057  RH  100%=      5-min Rain = 0
KLA1 171312Z 12001KT 06/06 A3021 RMK A01 T00570057  RH  100%=      5-min Rain = 0
KLA1 171313Z 12001KT 06/06 A3021 RMK A01 T00570057  RH  100%=      5-min Rain = 0
KLA1 171314Z 11001KT 06/06 A3021 RMK A01 T00570057  RH  100%=      5-min Rain = 0
KLA1 171315Z 09001KT 06/06 A3021 RMK A01 T00570057  RH  100%=      5-min Rain = 0
KLA1 171316Z 15000KT 06/06 A3021 RMK A01 T00570057  RH  100%=      5-min Rain = 0
KLA1 171317Z 00000KT 06/06 A3021 RMK A01 T00570057  RH  100%=      5-min Rain = 0
KLA1 171318Z 15000KT 06/06 A3021 RMK A01 T00570057  RH  100%=      5-min Rain = 0
KLA1 171319Z 15001KT 06/06 A3021 RMK A01 T00570057  RH  100%=      5-min Rain = 0
KLA1 171320Z 15001KT 06/06 A3021 RMK A01 T00570057  RH  100%=      5-min Rain = 0
KLA1 171321Z 15001KT 06/06 A3021 RMK A01 T00570057  RH  100%=      5-min Rain = 0
KLA1 171322Z 14000KT 06/06 A3022 RMK A01 T00570057  RH  100%=      5-min Rain = 0
KLA1 171323Z 00000KT 06/06 A3022 RMK A01 T00570057  RH  100%=      5-min Rain = 0
KLA1 171324Z 00000KT 06/06 A3022 RMK A01 T00570057  RH  100%=      5-min Rain = 0
KLA1 171325Z 00000KT 06/06 A3022 RMK A01 T00570057  RH  100%=      5-min Rain = 0
KLA1 171326Z 00000KT 06/06 A3022 RMK A01 T00570057  RH  100%=      5-min Rain = 0
KLA1 171327Z 00000KT 06/06 A3022 RMK A01 T00570057  RH  100%=      5-min Rain = 0
KLA1 171328Z 00000KT 06/06 A3022 RMK A01 T00570057  RH  100%=      5-min Rain = 0
KLA1 171329Z 12001KT 06/06 A3022 RMK A01 T00570057  RH  100%=      5-min Rain = 0
KLA1 171330Z 12001KT 06/06 A3022 RMK A01 T00570057  RH  100%=      5-min Rain = 0
KLA1 171331Z 13001KT 06/06 A3022 RMK A01 T00570057  RH  100%=      5-min Rain = 0
KLA1 171332Z 13000KT 06/06 A3022 RMK A01 T00570057  RH  100%=      5-min Rain = 0
KLA1 171333Z 11001KT 06/06 A3022 RMK A01 T00570057  RH  100%=      5-min Rain = 0
KLA1 171334Z 10001KT 06/06 A3022 RMK A01 T00570057  RH  100%=      5-min Rain = 0
KLA1 171335Z 08000KT 06/06 A3022 RMK A01 T00560056  RH  100%=      5-min Rain = 0
KLA1 171336Z 09000KT 06/06 A3022 RMK A01 T00560056  RH  100%=      5-min Rain = 0
KLA1 171337Z 14001KT 06/06 A3022 RMK A01 T00560056  RH  100%=      5-min Rain = 0
KLA1 171338Z 17001KT 06/06 A3022 RMK A01 T00560056  RH  100%=      5-min Rain = 0
KLA1 171339Z 22001KT 06/06 A3022 RMK A01 T00560056  RH  100%=      5-min Rain = 0
KLA1 171340Z 21002KT 06/06 A3022 RMK A01 T00570057  RH  100%=      5-min Rain = 0
KLA1 171341Z 22001KT 06/06 A3023 RMK A01 T00560056  RH  100%=      5-min Rain = 0
KLA1 171342Z 22001KT 06/06 A3023 RMK A01 T00550055  RH  100%=      5-min Rain = 0
KLA1 171343Z 21000KT 06/06 A3023 RMK A01 T00550055  RH  100%=      5-min Rain = 0
KLA1 171344Z 00000KT 06/06 A3023 RMK A01 T00560056  RH  100%=      5-min Rain = 0
KLA1 171345Z 00000KT 06/06 A3023 RMK A01 T00550055  RH  100%=      5-min Rain = 0
KLA1 171346Z 00000KT 06/06 A3023 RMK A01 T00560056  RH  100%=      5-min Rain = 0
KLA1 171347Z 00000KT 06/06 A3023 RMK A01 T00560056  RH  100%=      5-min Rain = 0
KLA1 171348Z 00000KT 06/06 A3023 RMK A01 T00560056  RH  100%=      5-min Rain = 0
KLA1 171349Z 00000KT 06/06 A3023 RMK A01 T00560056  RH  100%=      5-min Rain = 0
KLA1 171350Z 20000KT 06/06 A3023 RMK A01 T00560056  RH  100%=      5-min Rain = 0
KLA1 171351Z 20000KT 06/06 A3023 RMK A01 T00560056  RH  100%=      5-min Rain = 0
KLA1 171352Z 00000KT 06/06 A3023 RMK A01 T00560056  RH  100%=      5-min Rain = 0
KLA1 171353Z 00000KT 06/06 A3023 RMK A01 T00560056  RH  100%=      5-min Rain = 0
KLA1 171354Z 00000KT 06/06 A3023 RMK A01 T00550055  RH  100%=      5-min Rain = 0
KLA1 171355Z 00000KT 06/06 A3023 RMK A01 T00550055  RH  100%=      5-min Rain = 0
KLA1 171356Z 00000KT 06/06 A3023 RMK A01 T00560056  RH  100%=      5-min Rain = 0
KLA1 171357Z 00000KT 06/06 A3023 RMK A01 T00560056  RH  100%=      5-min Rain = 0
KLA1 171358Z 00000KT 06/06 A3023 RMK A01 T00560056  RH  100%=      5-min Rain = 0
KLA1 171359Z 00000KT 06/06 A3023 RMK A01 T00550055  RH  100%=      5-min Rain = 0
KLA1 171400Z 23000KT 06/06 A3023 RMK A01 T00550055  RH  100%=      5-min Rain = 0
KLA1 171401Z 25001KT 06/06 A3023 RMK A01 T00560056  RH  100%=      5-min Rain = 0
KLA1 171402Z 24001KT 06/06 A3023 RMK A01 T00550055  RH  100%=      5-min Rain = 0
KLA1 171403Z 29001KT 06/06 A3023 RMK A01 T00560056  RH  100%=      5-min Rain = 0
KLA1 171404Z 30002KT 06/06 A3023 RMK A01 T00560056  RH  100%=      5-min Rain = 0
KLA1 171405Z 32001KT 06/06 A3023 RMK A01 T00560056  RH  100%=      5-min Rain = 0
KLA1 171406Z 32002KT 06/06 A3023 RMK A01 T00560056  RH  100%=      5-min Rain = 0
KLA1 171407Z 35002KT 06/06 A3023 RMK A01 T00560056  RH  100%=      5-min Rain = 0
KLA1 171408Z 35002KT 06/06 A3023 RMK A01 T00550055  RH  100%=      5-min Rain = 0
KLA1 171409Z 35002KT 06/06 A3023 RMK A01 T00550055  RH  100%=      5-min Rain = 0
KLA1 171410Z 35001KT 06/06 A3023 RMK A01 T00550055  RH  100%=      5-min Rain = 0
KLA1 171411Z 34001KT 05/05 A3023 RMK A01 T00540054  RH  100%=      5-min Rain = 0
KLA1 171412Z 36001KT 06/06 A3023 RMK A01 T00550055  RH  100%=      5-min Rain = 0
KLA1 171413Z 01001KT 05/05 A3023 RMK A01 T00540054  RH  100%=      5-min Rain = 0
KLA1 171414Z 01001KT 05/05 A3023 RMK A01 T00540053  RH  100%=      5-min Rain = 0
KLA1 171415Z 02001KT 05/05 A3023 RMK A01 T00540054  RH  100%=      5-min Rain = 0
KLA1 171416Z 02002KT 05/05 A3023 RMK A01 T00530053  RH  100%=      5-min Rain = 0
KLA1 171417Z 01002KT 05/05 A3023 RMK A01 T00530053  RH  100%=      5-min Rain = 0
KLA1 171418Z 01002KT 05/05 A3023 RMK A01 T00530053  RH  100%=      5-min Rain = 0
KLA1 171419Z 02002KT 05/05 A3023 RMK A01 T00530053  RH  100%=      5-min Rain = 0
KLA1 171420Z 01002KT 05/05 A3023 RMK A01 T00530053  RH  100%=      5-min Rain = 0
KLA1 171421Z 00002KT 05/05 A3023 RMK A01 T00530053  RH  100%=      5-min Rain = 0
KLA1 171422Z 35002KT 05/05 A3023 RMK A01 T00530053  RH  100%=      5-min Rain = 0
KLA1 171423Z 34002KT 05/05 A3023 RMK A01 T00540054  RH  100%=      5-min Rain = 0
KLA1 171424Z 35002KT 05/05 A3023 RMK A01 T00540054  RH  100%=      5-min Rain = 0
KLA1 171425Z 00002KT 05/05 A3023 RMK A01 T00530053  RH  100%=      5-min Rain = 0
KLA1 171426Z 00002KT 05/05 A3023 RMK A01 T00530053  RH  100%=      5-min Rain = 0
KLA1 171427Z 01002KT 05/05 A3023 RMK A01 T00530053  RH  100%=      5-min Rain = 0
KLA1 171428Z 00002KT 05/05 A3023 RMK A01 T00530053  RH  100%=      5-min Rain = 0
KLA1 171429Z 36002KT 05/05 A3023 RMK A01 T00530053  RH  100%=      5-min Rain = 0
KLA1 171430Z 00002KT 05/05 A3024 RMK A01 T00530053  RH  100%=      5-min Rain = 0
KLA1 171431Z 00001KT 05/05 A3024 RMK A01 T00530053  RH  100%=      5-min Rain = 0
KLA1 171432Z 01001KT 05/05 A3023 RMK A01 T00530053  RH  100%=      5-min Rain = 0
KLA1 171433Z 00000KT 05/05 A3023 RMK A01 T00530053  RH  100%=      5-min Rain = 0
KLA1 171434Z 34001KT 05/05 A3023 RMK A01 T00530053  RH  100%=      5-min Rain = 0
KLA1 171435Z 33001KT 05/05 A3024 RMK A01 T00530053  RH  100%=      5-min Rain = 0
KLA1 171436Z 27002KT 05/05 A3024 RMK A01 T00520052  RH  100%=      5-min Rain = 0
KLA1 171437Z 26003KT 05/05 A3024 RMK A01 T00530053  RH  100%=      5-min Rain = 0
KLA1 171438Z 28003KT 05/05 A3024 RMK A01 T00530053  RH  100%=      5-min Rain = 0
KLA1 171439Z 27003KT 05/05 A3024 RMK A01 T00530053  RH  100%=      5-min Rain = 0
KLA1 171440Z 27002KT 05/05 A3024 RMK A01 T00530053  RH  100%=      5-min Rain = 0
KLA1 171441Z 26003KT 05/05 A3024 RMK A01 T00530053  RH  100%=      5-min Rain = 0
KLA1 171442Z 26004KT 05/05 A3024 RMK A01 T00530053  RH  100%=      5-min Rain = 0
KLA1 171443Z 26003KT 05/05 A3024 RMK A01 T00520052  RH  100%=      5-min Rain = 0
KLA1 171444Z 27002KT 05/05 A3024 RMK A01 T00520052  RH  100%=      5-min Rain = 0
KLA1 171445Z 27002KT 05/05 A3024 RMK A01 T00510051  RH  100%=      5-min Rain = 0
KLA1 171446Z 31001KT 05/05 A3024 RMK A01 T00510051  RH  100%=      5-min Rain = 0
KLA1 171447Z 33001KT 05/05 A3024 RMK A01 T00510051  RH  100%=      5-min Rain = 0
KLA1 171448Z 31002KT 05/05 A3024 RMK A01 T00520052  RH  100%=      5-min Rain = 0
KLA1 171449Z 28002KT 05/05 A3024 RMK A01 T00530053  RH  100%=      5-min Rain = 0
KLA1 171450Z 28002KT 05/05 A3024 RMK A01 T00530053  RH  100%=      5-min Rain = 0
KLA1 171451Z 25002KT 05/05 A3024 RMK A01 T00530053  RH  100%=      5-min Rain = 0
KLA1 171452Z 24003KT 05/05 A3024 RMK A01 T00530053  RH  100%=      5-min Rain = 0
KLA1 171453Z 24003KT 05/05 A3024 RMK A01 T00530053  RH  100%=      5-min Rain = 0
KLA1 171454Z 23003KT 05/05 A3024 RMK A01 T00530053  RH  100%=      5-min Rain = 0
KLA1 171455Z 23002KT 05/05 A3024 RMK A01 T00530053  RH  100%=      5-min Rain = 0
KLA1 171456Z 25002KT 05/05 A3024 RMK A01 T00530053  RH  100%=      5-min Rain = 0
KLA1 171457Z 26001KT 05/05 A3024 RMK A01 T00530052  RH  100%=      5-min Rain = 0
KLA1 171458Z 28001KT 05/05 A3024 RMK A01 T00530053  RH  100%=      5-min Rain = 0
KLA1 171459Z 28001KT 05/05 A3024 RMK A01 T00530053  RH  100%=      5-min Rain = 0
KLA1 171500Z 24001KT 05/05 A3024 RMK A01 T00530053  RH  100%=      5-min Rain = 0
KLA1 171501Z 25002KT 05/05 A3024 RMK A01 T00530053  RH  100%=      5-min Rain = 0
KLA1 171502Z 23002KT 05/05 A3024 RMK A01 T00520052  RH  100%=      5-min Rain = 0
KLA1 171503Z 22001KT 05/05 A3024 RMK A01 T00520052  RH  100%=      5-min Rain = 0
KLA1 171504Z 22001KT 05/05 A3024 RMK A01 T00520052  RH  100%=      5-min Rain = 0
KLA1 171505Z 21000KT 05/05 A3024 RMK A01 T00510051  RH  100%=      5-min Rain = 0
KLA1 171506Z 28000KT 05/05 A3024 RMK A01 T00510051  RH  100%=      5-min Rain = 0
KLA1 171507Z 28000KT 05/05 A3024 RMK A01 T00520052  RH  100%=      5-min Rain = 0
KLA1 171508Z 25000KT 05/05 A3024 RMK A01 T00520052  RH  100%=      5-min Rain = 0
KLA1 171509Z 27001KT 05/05 A3024 RMK A01 T00530053  RH  100%=      5-min Rain = 0
KLA1 171510Z 28001KT 05/05 A3024 RMK A01 T00530053  RH  100%=      5-min Rain = 0
KLA1 171511Z 28001KT 05/05 A3024 RMK A01 T00530053  RH  100%=      5-min Rain = 0
KLA1 171512Z 28001KT 05/05 A3024 RMK A01 T00530053  RH  100%=      5-min Rain = 0
KLA1 171513Z 28000KT 05/05 A3024 RMK A01 T00520052  RH  100%=      5-min Rain = 0
KLA1 171514Z 28000KT 05/05 A3024 RMK A01 T00520052  RH  100%=      5-min Rain = 0
KLA1 171515Z 00000KT 05/05 A3024 RMK A01 T00520052  RH  100%=      5-min Rain = 0
KLA1 171516Z 00000KT 05/05 A3024 RMK A01 T00520051  RH  100%=      5-min Rain = 0
KLA1 171517Z 00000KT 05/05 A3024 RMK A01 T00520052  RH  100%=      5-min Rain = 0
KLA1 171518Z 00000KT 05/05 A3024 RMK A01 T00510051  RH  100%=      5-min Rain = 0
KLA1 171519Z 00000KT 05/05 A3024 RMK A01 T00510051  RH  100%=      5-min Rain = 0
KLA1 171520Z 00000KT 05/05 A3024 RMK A01 T00510051  RH  100%=      5-min Rain = 0
KLA1 171521Z 20000KT 05/05 A3024 RMK A01 T00510051  RH  100%=      5-min Rain = 0
KLA1 171522Z 19001KT 05/05 A3024 RMK A01 T00510051  RH  100%=      5-min Rain = 0
KLA1 171523Z 19001KT 05/05 A3024 RMK A01 T00510051  RH  100%=      5-min Rain = 0
KLA1 171524Z 21001KT 05/05 A3024 RMK A01 T00510051  RH  100%=      5-min Rain = 0
KLA1 171525Z 21001KT 05/05 A3024 RMK A01 T00520052  RH  100%=      5-min Rain = 0
KLA1 171526Z 19000KT 05/05 A3024 RMK A01 T00520052  RH  100%=      5-min Rain = 0
KLA1 171527Z 20000KT 05/05 A3024 RMK A01 T00530053  RH  100%=      5-min Rain = 0
KLA1 171528Z 22000KT 05/05 A3024 RMK A01 T00530053  RH  100%=      5-min Rain = 0
KLA1 171529Z 28000KT 05/05 A3024 RMK A01 T00540054  RH  100%=      5-min Rain = 0
KLA1 171530Z 27001KT 06/06 A3024 RMK A01 T00560056  RH  100%=      5-min Rain = 0
KLA1 171531Z 26002KT 06/06 A3024 RMK A01 T00580058  RH  100%=      5-min Rain = 0
KLA1 171532Z 26002KT 06/06 A3024 RMK A01 T00570057  RH  100%=      5-min Rain = 0
KLA1 171533Z 26002KT 05/05 A3024 RMK A01 T00540054  RH  100%=      5-min Rain = 0
KLA1 171534Z 26001KT 05/05 A3024 RMK A01 T00540054  RH  100%=      5-min Rain = 0
KLA1 171535Z 28001KT 05/05 A3024 RMK A01 T00540054  RH  100%=      5-min Rain = 0
KLA1 171536Z 29000KT 06/06 A3024 RMK A01 T00550055  RH  100%=      5-min Rain = 0
KLA1 171537Z 30001KT 06/06 A3024 RMK A01 T00550055  RH  100%=      5-min Rain = 0
KLA1 171538Z 27001KT 06/06 A3024 RMK A01 T00550055  RH  100%=      5-min Rain = 0
KLA1 171539Z 26002KT 06/06 A3024 RMK A01 T00550055  RH  100%=      5-min Rain = 0
KLA1 171540Z 27002KT 06/06 A3024 RMK A01 T00550055  RH  100%=      5-min Rain = 0
KLA1 171541Z 27002KT 06/06 A3024 RMK A01 T00550055  RH  100%=      5-min Rain = 0
KLA1 171542Z 27001KT 05/05 A3025 RMK A01 T00540054  RH  100%=      5-min Rain = 0
KLA1 171543Z 31001KT 06/06 A3025 RMK A01 T00550055  RH  100%=      5-min Rain = 0
KLA1 171544Z 27001KT 06/06 A3025 RMK A01 T00570057  RH  100%=      5-min Rain = 0
KLA1 171545Z 25002KT 06/06 A3025 RMK A01 T00570057  RH  100%=      5-min Rain = 0
KLA1 171546Z 27001KT 06/06 A3025 RMK A01 T00570057  RH  100%=      5-min Rain = 0
KLA1 171547Z 28001KT 06/06 A3025 RMK A01 T00570057  RH  100%=      5-min Rain = 0
KLA1 171548Z 30001KT 06/06 A3025 RMK A01 T00570057  RH  100%=      5-min Rain = 0
KLA1 171549Z 30001KT 06/06 A3025 RMK A01 T00580058  RH  100%=      5-min Rain = 0
KLA1 171550Z 31000KT 06/06 A3025 RMK A01 T00580058  RH  100%=      5-min Rain = 0
KLA1 171551Z 29001KT 06/06 A3025 RMK A01 T00590059  RH  100%=      5-min Rain = 0
KLA1 171552Z 24002KT 06/06 A3025 RMK A01 T00600060  RH  100%=      5-min Rain = 0
KLA1 171553Z 24001KT 06/06 A3025 RMK A01 T00600060  RH  100%=      5-min Rain = 0
KLA1 171554Z 22002KT 06/06 A3025 RMK A01 T00600060  RH  100%=      5-min Rain = 0
KLA1 171555Z 24002KT 06/06 A3025 RMK A01 T00590059  RH  100%=      5-min Rain = 0
KLA1 171556Z 24002KT 06/06 A3025 RMK A01 T00600059  RH  100%=      5-min Rain = 0
KLA1 171557Z 25002KT 06/06 A3025 RMK A01 T00600060  RH  100%=      5-min Rain = 0
KLA1 171558Z 27001KT 06/06 A3025 RMK A01 T00600060  RH  100%=      5-min Rain = 0
KLA1 171559Z 24001KT 06/06 A3025 RMK A01 T00600060  RH  100%=      5-min Rain = 0
KLA1 171600Z 22001KT 06/06 A3025 RMK A01 T00600060  RH  100%=      5-min Rain = 0
KLA1 171601Z 23000KT 06/06 A3025 RMK A01 T00600060  RH  100%=      5-min Rain = 0
KLA1 171602Z 24000KT 06/06 A3025 RMK A01 T00620062  RH  100%=      5-min Rain = 0
KLA1 171603Z 26001KT 06/06 A3025 RMK A01 T00630063  RH  100%=      5-min Rain = 0
KLA1 171604Z 25002KT 06/06 A3025 RMK A01 T00620062  RH  100%=      5-min Rain = 0
KLA1 171605Z 25002KT 06/06 A3025 RMK A01 T00610061  RH  100%=      5-min Rain = 0
KLA1 171606Z 26001KT 06/06 A3025 RMK A01 T00610061  RH  100%=      5-min Rain = 0
KLA1 171607Z 27000KT 06/06 A3025 RMK A01 T00610061  RH  100%=      5-min Rain = 0
KLA1 171608Z 26001KT 06/06 A3025 RMK A01 T00610061  RH  100%=      5-min Rain = 0
KLA1 171609Z 26001KT 06/06 A3025 RMK A01 T00620062  RH  100%=      5-min Rain = 0
KLA1 171610Z 26002KT 06/06 A3025 RMK A01 T00620062  RH  100%=      5-min Rain = 0
KLA1 171611Z 28001KT 06/06 A3025 RMK A01 T00630063  RH  100%=      5-min Rain = 0
KLA1 171612Z 29002KT 06/06 A3025 RMK A01 T00640064  RH  100%=      5-min Rain = 0
KLA1 171613Z 29002KT 06/06 A3025 RMK A01 T00640064  RH  100%=      5-min Rain = 0
KLA1 171614Z 30002KT 07/07 A3025 RMK A01 T00650065  RH  100%=      5-min Rain = 0
KLA1 171615Z 28002KT 07/07 A3025 RMK A01 T00650065  RH  100%=      5-min Rain = 0
KLA1 171616Z 27002KT 07/07 A3025 RMK A01 T00650065  RH  100%=      5-min Rain = 0
KLA1 171617Z 27002KT 07/07 A3025 RMK A01 T00650065  RH  100%=      5-min Rain = 0
KLA1 171618Z 30002KT 07/07 A3025 RMK A01 T00650065  RH  100%=      5-min Rain = 0
KLA1 171619Z 29002KT 07/07 A3025 RMK A01 T00650065  RH  100%=      5-min Rain = 0
KLA1 171620Z 31002KT 07/07 A3025 RMK A01 T00670067  RH  100%=      5-min Rain = 0
KLA1 171621Z 31002KT 07/07 A3025 RMK A01 T00670067  RH  100%=      5-min Rain = 0
KLA1 171622Z 32001KT 07/07 A3025 RMK A01 T00670067  RH  100%=      5-min Rain = 0
KLA1 171623Z 29002KT 07/07 A3025 RMK A01 T00680068  RH  100%=      5-min Rain = 0
KLA1 171624Z 28002KT 07/07 A3025 RMK A01 T00700070  RH  100%=      5-min Rain = 0
KLA1 171625Z 27002KT 07/07 A3025 RMK A01 T00710071  RH  100%=      5-min Rain = 0
KLA1 171626Z 34001KT 07/07 A3025 RMK A01 T00710071  RH  100%=      5-min Rain = 0
KLA1 171627Z 35000KT 07/07 A3025 RMK A01 T00710071  RH  100%=      5-min Rain = 0
KLA1 171628Z 36001KT 07/07 A3025 RMK A01 T00710071  RH  100%=      5-min Rain = 0
KLA1 171629Z 34001KT 07/07 A3025 RMK A01 T00720072  RH  100%=      5-min Rain = 0
KLA1 171630Z 35002KT 07/07 A3025 RMK A01 T00720072  RH  100%=      5-min Rain = 0
KLA1 171631Z 35002KT 07/07 A3025 RMK A01 T00730073  RH  100%=      5-min Rain = 0
KLA1 171632Z 33001KT 07/07 A3026 RMK A01 T00730073  RH  100%=      5-min Rain = 0
KLA1 171633Z 29001KT 07/07 A3026 RMK A01 T00730073  RH  100%=      5-min Rain = 0
KLA1 171634Z 29002KT 07/07 A3026 RMK A01 T00730073  RH  100%=      5-min Rain = 0
KLA1 171635Z 29001KT 07/07 A3026 RMK A01 T00730073  RH  100%=      5-min Rain = 0
KLA1 171636Z 28000KT 07/07 A3026 RMK A01 T00740074  RH  100%=      5-min Rain = 0
KLA1 171637Z 00000KT 08/08 A3026 RMK A01 T00750075  RH  100%=      5-min Rain = 0
KLA1 171638Z 00000KT 08/08 A3026 RMK A01 T00760076  RH  100%=      5-min Rain = 0
KLA1 171639Z 00000KT 08/08 A3026 RMK A01 T00780078  RH  100%=      5-min Rain = 0
KLA1 171640Z 00000KT 08/08 A3026 RMK A01 T00800080  RH  100%=      5-min Rain = 0
KLA1 171641Z 00000KT 08/08 A3026 RMK A01 T00810081  RH  100%=      5-min Rain = 0
KLA1 171642Z 00000KT 08/08 A3026 RMK A01 T00830083  RH  100%=      5-min Rain = 0
KLA1 171643Z 26000KT 08/08 A3026 RMK A01 T00840084  RH  100%=      5-min Rain = 0
KLA1 171644Z 26000KT 08/08 A3026 RMK A01 T00820082  RH  100%=      5-min Rain = 0
KLA1 171645Z 00000KT 08/08 A3026 RMK A01 T00820082  RH  100%=      5-min Rain = 0
KLA1 171646Z 00000KT 08/08 A3026 RMK A01 T00840084  RH  100%=      5-min Rain = 0
KLA1 171647Z 23000KT 09/09 A3026 RMK A01 T00860086  RH  100%=      5-min Rain = 0
KLA1 171648Z 16000KT 08/08 A3026 RMK A01 T00840084  RH  100%=      5-min Rain = 0
KLA1 171649Z 00000KT 08/08 A3026 RMK A01 T00820082  RH  100%=      5-min Rain = 0
KLA1 171650Z 12000KT 08/08 A3026 RMK A01 T00820082  RH  100%=      5-min Rain = 0
KLA1 171651Z 13001KT 08/08 A3026 RMK A01 T00830083  RH  100%=      5-min Rain = 0
KLA1 171652Z 12000KT 08/08 A3026 RMK A01 T00840084  RH  100%=      5-min Rain = 0
KLA1 171653Z 16001KT 09/09 A3026 RMK A01 T00860086  RH  100%=      5-min Rain = 0
KLA1 171654Z 16002KT 09/09 A3026 RMK A01 T00860086  RH  100%=      5-min Rain = 0
KLA1 171655Z 18001KT 09/09 A3026 RMK A01 T00860086  RH  100%=      5-min Rain = 0
KLA1 171656Z 22000KT 09/09 A3026 RMK A01 T00860086  RH  100%=      5-min Rain = 0
KLA1 171657Z 00000KT 09/09 A3026 RMK A01 T00870087  RH  100%=      5-min Rain = 0
KLA1 171658Z 12001KT 09/09 A3026 RMK A01 T00890089  RH  100%=      5-min Rain = 0
KLA1 171659Z 10003KT 09/09 A3026 RMK A01 T00890089  RH  100%=      5-min Rain = 0
KLA1 171700Z 10002KT 09/09 A3026 RMK A01 T00890089  RH  100%=      5-min Rain = 0
KLA1 171701Z 09001KT 09/09 A3026 RMK A01 T00890089  RH  100%=      5-min Rain = 0
KLA1 171702Z 05000KT 09/09 A3026 RMK A01 T00900090  RH  100%=      5-min Rain = 0
KLA1 171703Z 16002KT 09/09 A3026 RMK A01 T00910091  RH  100%=      5-min Rain = 0
KLA1 171704Z 17001KT 09/09 A3026 RMK A01 T00910091  RH  100%=      5-min Rain = 0
KLA1 171705Z 18001KT 09/09 A3026 RMK A01 T00910091  RH  100%=      5-min Rain = 0
KLA1 171706Z 18001KT 09/09 A3026 RMK A01 T00910091  RH  100%=      5-min Rain = 0
KLA1 171707Z 25000KT 09/09 A3026 RMK A01 T00910091  RH  100%=      5-min Rain = 0
KLA1 171708Z 16001KT 09/09 A3026 RMK A01 T00910091  RH  100%=      5-min Rain = 0
KLA1 171709Z 14002KT 09/09 A3026 RMK A01 T00910091  RH  100%=      5-min Rain = 0
KLA1 171710Z 15000KT 09/09 A3027 RMK A01 T00920092  RH  100%=      5-min Rain = 0
KLA1 171711Z 13002KT 09/09 A3027 RMK A01 T00930093  RH  100%=      5-min Rain = 0
KLA1 171712Z 13002KT 09/09 A3027 RMK A01 T00940094  RH  100%=      5-min Rain = 0
KLA1 171713Z 18002KT 09/09 A3027 RMK A01 T00940094  RH  100%=      5-min Rain = 0
KLA1 171714Z 18002KT 09/09 A3027 RMK A01 T00940094  RH  100%=      5-min Rain = 0
KLA1 171715Z 21001KT 09/10 A3027 RMK A01 T00940095  RH  100%=      5-min Rain = 0
KLA1 171716Z 22001KT 10/10 A3027 RMK A01 T00950095  RH  100%=      5-min Rain = 0
KLA1 171717Z 21002KT 10/10 A3026 RMK A01 T00970097  RH  100%=      5-min Rain = 0
KLA1 171718Z 21003KT 10/10 A3027 RMK A01 T00970097  RH  100%=      5-min Rain = 0
KLA1 171719Z 20003KT 10/10 A3027 RMK A01 T00980098  RH  100%=      5-min Rain = 0
KLA1 171720Z 20002KT 10/10 A3027 RMK A01 T00980098  RH  100%=      5-min Rain = 0
KLA1 171721Z 19002KT 10/10 A3027 RMK A01 T00980098  RH  100%=      5-min Rain = 0
KLA1 171722Z 18002KT 10/10 A3027 RMK A01 T00990099  RH  100%=      5-min Rain = 0
KLA1 171723Z 17002KT 10/10 A3027 RMK A01 T01000100  RH  100%=      5-min Rain = 0
KLA1 171724Z 17001KT 10/10 A3027 RMK A01 T01020102  RH  100%=      5-min Rain = 0
KLA1 171725Z 21002KT 10/10 A3027 RMK A01 T01030103  RH  100%=      5-min Rain = 0
KLA1 171726Z 14002KT 10/10 A3027 RMK A01 T01030103  RH  100%=      5-min Rain = 0
KLA1 171727Z 13001KT 10/10 A3027 RMK A01 T01040104  RH  100%=      5-min Rain = 0
KLA1 171728Z 17002KT 11/11 A3027 RMK A01 T01050105  RH  100%=      5-min Rain = 0
KLA1 171729Z 17001KT 11/11 A3027 RMK A01 T01060106  RH  100%=      5-min Rain = 0
KLA1 171730Z 19002KT 11/10 A3027 RMK A01 T01060104  RH  099%=      5-min Rain = 0
KLA1 171731Z 18001KT 11/10 A3027 RMK A01 T01060102  RH  098%=      5-min Rain = 0
KLA1 171732Z 15000KT 11/10 A3026 RMK A01 T01060103  RH  098%=      5-min Rain = 0
KLA1 171733Z 15000KT 11/11 A3026 RMK A01 T01080105  RH  098%=      5-min Rain = 0
KLA1 171734Z 00000KT 11/11 A3026 RMK A01 T01090106  RH  098%=      5-min Rain = 0
KLA1 171735Z 00000KT 11/11 A3026 RMK A01 T01110107  RH  098%=      5-min Rain = 0
KLA1 171736Z 00000KT 11/11 A3026 RMK A01 T01120106  RH  097%=      5-min Rain = 0
KLA1 171737Z 00000KT 11/11 A3026 RMK A01 T01120105  RH  095%=      5-min Rain = 0
KLA1 171738Z 00000KT 11/11 A3026 RMK A01 T01130106  RH  095%=      5-min Rain = 0
KLA1 171739Z 00000KT 11/11 A3026 RMK A01 T01140106  RH  094%=      5-min Rain = 0
KLA1 171740Z 34000KT 11/10 A3026 RMK A01 T01140103  RH  093%=      5-min Rain = 0
KLA1 171741Z 00000KT 11/10 A3026 RMK A01 T01140102  RH  092%=      5-min Rain = 0
KLA1 171742Z 33001KT 12/10 A3026 RMK A01 T01150101  RH  091%=      5-min Rain = 0
KLA1 171743Z 33000KT 12/10 A3026 RMK A01 T01150098  RH  090%=      5-min Rain = 0
KLA1 171744Z 35000KT 12/10 A3026 RMK A01 T01150097  RH  089%=      5-min Rain = 0
KLA1 171745Z 01000KT 12/10 A3026 RMK A01 T01160097  RH  088%=      5-min Rain = 0
KLA1 171746Z 00000KT 12/09 A3026 RMK A01 T01160094  RH  086%=      5-min Rain = 0
KLA1 171747Z 00000KT 12/09 A3026 RMK A01 T01160094  RH  086%=      5-min Rain = 0
KLA1 171748Z 00000KT 12/09 A3026 RMK A01 T01170094  RH  086%=      5-min Rain = 0
KLA1 171749Z 00000KT 12/10 A3026 RMK A01 T01180096  RH  086%=      5-min Rain = 0
KLA1 171750Z 00000KT 12/10 A3026 RMK A01 T01210098  RH  086%=      5-min Rain = 0
KLA1 171751Z 00000KT 12/10 A3026 RMK A01 T01220098  RH  085%=      5-min Rain = 0
KLA1 171752Z 00000KT 12/10 A3026 RMK A01 T01240099  RH  085%=      5-min Rain = 0
KLA1 171753Z 00000KT 13/10 A3025 RMK A01 T01250099  RH  084%=      5-min Rain = 0
KLA1 171754Z 00000KT 13/10 A3025 RMK A01 T01270099  RH  083%=      5-min Rain = 0
KLA1 171755Z 18000KT 13/10 A3025 RMK A01 T01290100  RH  083%=      5-min Rain = 0
KLA1 171756Z 21001KT 13/10 A3025 RMK A01 T01300096  RH  079%=      5-min Rain = 0
KLA1 171757Z 21000KT 13/09 A3025 RMK A01 T01310091  RH  077%=      5-min Rain = 0
KLA1 171758Z 20000KT 13/09 A3025 RMK A01 T01330091  RH  076%=      5-min Rain = 0
KLA1 171759Z 22000KT 14/09 A3025 RMK A01 T01350087  RH  073%=      5-min Rain = 0
KLA1 171800Z 00000KT 14/09 A3025 RMK A01 T01370088  RH  072%=      5-min Rain = 0
KLA1 171801Z 18001KT 14/09 A3025 RMK A01 T01400088  RH  071%=      5-min Rain = 0
KLA1 171802Z 16001KT 14/09 A3025 RMK A01 T01410085  RH  069%=      5-min Rain = 0
KLA1 171803Z 18001KT 14/09 A3025 RMK A01 T01420086  RH  069%=      5-min Rain = 0
KLA1 171804Z 18000KT 14/09 A3025 RMK A01 T01430085  RH  068%=      5-min Rain = 0
KLA1 171805Z 14000KT 14/09 A3025 RMK A01 T01440085  RH  067%=      5-min Rain = 0
KLA1 171806Z 11000KT 15/09 A3025 RMK A01 T01460086  RH  067%=      5-min Rain = 0
KLA1 171807Z 25000KT 15/09 A3025 RMK A01 T01490091  RH  068%=      5-min Rain = 0
KLA1 171808Z 22002KT 15/09 A3025 RMK A01 T01510088  RH  066%=      5-min Rain = 0
KLA1 171809Z 21000KT 15/09 A3025 RMK A01 T01510086  RH  065%=      5-min Rain = 0
KLA1 171810Z 21000KT 15/09 A3025 RMK A01 T01510087  RH  066%=      5-min Rain = 0
KLA1 171811Z 22001KT 15/09 A3025 RMK A01 T01510086  RH  065%=      5-min Rain = 0
KLA1 171812Z 24000KT 15/09 A3025 RMK A01 T01520086  RH  065%=      5-min Rain = 0
KLA1 171813Z 22000KT 15/09 A3025 RMK A01 T01520086  RH  065%=      5-min Rain = 0
KLA1 171814Z 29000KT 15/08 A3025 RMK A01 T01520084  RH  064%=      5-min Rain = 0
KLA1 171815Z 21002KT 15/09 A3025 RMK A01 T01520085  RH  064%=      5-min Rain = 0
KLA1 171816Z 22002KT 15/09 A3025 RMK A01 T01530089  RH  066%=      5-min Rain = 0
KLA1 171817Z 22002KT 15/08 A3025 RMK A01 T01540083  RH  063%=      5-min Rain = 0
KLA1 171818Z 20001KT 15/08 A3025 RMK A01 T01540083  RH  063%=      5-min Rain = 0
KLA1 171819Z 20000KT 15/08 A3024 RMK A01 T01540082  RH  062%=      5-min Rain = 0
KLA1 171820Z 00000KT 15/08 A3024 RMK A01 T01540083  RH  062%=      5-min Rain = 0
KLA1 171821Z 00000KT 16/09 A3024 RMK A01 T01570085  RH  063%=      5-min Rain = 0
KLA1 171822Z 21001KT 16/09 A3024 RMK A01 T01580086  RH  062%=      5-min Rain = 0
KLA1 171823Z 28001KT 16/09 A3024 RMK A01 T01600093  RH  064%=      5-min Rain = 0
KLA1 171824Z 27002KT 16/09 A3024 RMK A01 T01630088  RH  061%=      5-min Rain = 0
KLA1 171825Z 28001KT 16/09 A3024 RMK A01 T01640086  RH  060%=      5-min Rain = 0
KLA1 171826Z 33000KT 16/08 A3024 RMK A01 T01640082  RH  058%=      5-min Rain = 0
KLA1 171827Z 35000KT 16/08 A3024 RMK A01 T01640081  RH  058%=      5-min Rain = 0
KLA1 171828Z 09001KT 16/08 A3024 RMK A01 T01630079  RH  058%=      5-min Rain = 0
KLA1 171829Z 10000KT 16/08 A3024 RMK A01 T01620078  RH  058%=      5-min Rain = 0
KLA1 171830Z 16001KT 16/08 A3023 RMK A01 T01630081  RH  058%=      5-min Rain = 0
KLA1 171831Z 15002KT 16/08 A3023 RMK A01 T01640080  RH  057%=      5-min Rain = 0
KLA1 171832Z 15002KT 17/08 A3023 RMK A01 T01660081  RH  057%=      5-min Rain = 0
KLA1 171833Z 20000KT 17/08 A3023 RMK A01 T01660080  RH  057%=      5-min Rain = 0
KLA1 171834Z 12001KT 17/08 A3023 RMK A01 T01660079  RH  056%=      5-min Rain = 0
KLA1 171835Z 18001KT 17/08 A3023 RMK A01 T01670083  RH  058%=      5-min Rain = 0
KLA1 171836Z 27002KT 17/09 A3023 RMK A01 T01690086  RH  058%=      5-min Rain = 0
KLA1 171837Z 28002KT 17/08 A3023 RMK A01 T01700082  RH  056%=      5-min Rain = 0
KLA1 171838Z 29002KT 17/08 A3022 RMK A01 T01710081  RH  056%=      5-min Rain = 0
KLA1 171839Z 29001KT 17/08 A3022 RMK A01 T01710082  RH  056%=      5-min Rain = 0
KLA1 171840Z 33000KT 17/08 A3022 RMK A01 T01720080  RH  055%=      5-min Rain = 0
KLA1 171841Z 35000KT 17/08 A3022 RMK A01 T01720079  RH  054%=      5-min Rain = 0
KLA1 171842Z 22001KT 17/08 A3022 RMK A01 T01720081  RH  055%=      5-min Rain = 0
KLA1 171843Z 21002KT 17/08 A3022 RMK A01 T01730079  RH  054%=      5-min Rain = 0
KLA1 171844Z 26002KT 17/08 A3021 RMK A01 T01740079  RH  054%=      5-min Rain = 0
KLA1 171845Z 24001KT 17/08 A3021 RMK A01 T01740079  RH  054%=      5-min Rain = 0
KLA1 171846Z 00000KT 18/08 A3021 RMK A01 T01750078  RH  053%=      5-min Rain = 0
KLA1 171847Z 00000KT 18/08 A3021 RMK A01 T01760082  RH  054%=      5-min Rain = 0
KLA1 171848Z 07000KT 18/08 A3021 RMK A01 T01780077  RH  052%=      5-min Rain = 0
KLA1 171849Z 09001KT 18/08 A3021 RMK A01 T01790077  RH  051%=      5-min Rain = 0
KLA1 171850Z 12001KT 18/07 A302 RMK A01 T01770074  RH  051%=      5-min Rain = 0
KLA1 171851Z 11001KT 18/08 A302 RMK A01 T01750075  RH  052%=      5-min Rain = 0
KLA1 171852Z 14000KT 18/08 A302 RMK A01 T01760078  RH  053%=      5-min Rain = 0
KLA1 171853Z 25001KT 18/08 A302 RMK A01 T01770076  RH  052%=      5-min Rain = 0
KLA1 171854Z 28002KT 18/08 A302 RMK A01 T01780078  RH  052%=      5-min Rain = 0
KLA1 171855Z 26004KT 18/07 A302 RMK A01 T01780073  RH  050%=      5-min Rain = 0
KLA1 171856Z 25003KT 18/07 A302 RMK A01 T01770073  RH  050%=      5-min Rain = 0
KLA1 171857Z 24002KT 18/07 A302 RMK A01 T01760071  RH  050%=      5-min Rain = 0
KLA1 171858Z 22002KT 18/07 A302 RMK A01 T01750071  RH  051%=      5-min Rain = 0
KLA1 171859Z 22001KT 18/07 A302 RMK A01 T01750070  RH  050%=      5-min Rain = 0
KLA1 171900Z 28002KT 18/07 A302 RMK A01 T01760071  RH  050%=      5-min Rain = 0
KLA1 171901Z 27002KT 18/07 A302 RMK A01 T01780071  RH  050%=      5-min Rain = 0
KLA1 171902Z 28001KT 18/07 A302 RMK A01 T01790068  RH  048%=      5-min Rain = 0
KLA1 171903Z 28001KT 18/07 A3019 RMK A01 T01800072  RH  049%=      5-min Rain = 0
KLA1 171904Z 29002KT 18/08 A3019 RMK A01 T01810077  RH  051%=      5-min Rain = 0
KLA1 171905Z 30001KT 18/07 A3019 RMK A01 T01820072  RH  048%=      5-min Rain = 0
KLA1 171906Z 27001KT 18/07 A3019 RMK A01 T01820069  RH  047%=      5-min Rain = 0
KLA1 171907Z 28001KT 18/07 A3019 RMK A01 T01820070  RH  048%=      5-min Rain = 0
KLA1 171908Z 25001KT 18/07 A3019 RMK A01 T01830070  RH  048%=      5-min Rain = 0
KLA1 171909Z 27001KT 18/07 A3019 RMK A01 T01830070  RH  048%=      5-min Rain = 0
KLA1 171910Z 00001KT 18/07 A3019 RMK A01 T01830073  RH  049%=      5-min Rain = 0
KLA1 171911Z 25000KT 18/08 A3019 RMK A01 T01830075  RH  049%=      5-min Rain = 0
KLA1 171912Z 25000KT 18/07 A3019 RMK A01 T01840070  RH  047%=      5-min Rain = 0
KLA1 171913Z 21001KT 18/07 A3019 RMK A01 T01840072  RH  048%=      5-min Rain = 0
KLA1 171914Z 22003KT 19/08 A3019 RMK A01 T01860075  RH  048%=      5-min Rain = 0
KLA1 171915Z 23004KT 19/07 A3019 RMK A01 T01870074  RH  048%=      5-min Rain = 0
KLA1 171916Z 23004KT 19/07 A3019 RMK A01 T01870073  RH  047%=      5-min Rain = 0
KLA1 171917Z 25003KT 19/07 A3019 RMK A01 T01880070  RH  046%=      5-min Rain = 0
KLA1 171918Z 21003KT 19/07 A3019 RMK A01 T01860071  RH  047%=      5-min Rain = 0
KLA1 171919Z 21004KT 19/07 A3018 RMK A01 T01850067  RH  046%=      5-min Rain = 0
KLA1 171920Z 21002KT 18/07 A3018 RMK A01 T01840067  RH  046%=      5-min Rain = 0
KLA1 171921Z 20002KT 18/07 A3018 RMK A01 T01840069  RH  047%=      5-min Rain = 0
KLA1 171922Z 18000KT 19/07 A3018 RMK A01 T01850073  RH  048%=      5-min Rain = 0
KLA1 171923Z 00000KT 19/07 A3018 RMK A01 T01860066  RH  045%=      5-min Rain = 0
KLA1 171924Z 20002KT 19/07 A3018 RMK A01 T01880070  RH  046%=      5-min Rain = 0
KLA1 171925Z 23003KT 19/07 A3018 RMK A01 T01890068  RH  045%=      5-min Rain = 0
KLA1 171926Z 24002KT 19/07 A3018 RMK A01 T01890067  RH  045%=      5-min Rain = 0
KLA1 171927Z 19000KT 19/06 A3018 RMK A01 T01880062  RH  044%=      5-min Rain = 0
KLA1 171928Z 00000KT 19/07 A3017 RMK A01 T01890066  RH  045%=      5-min Rain = 0
KLA1 171929Z 18000KT 19/07 A3017 RMK A01 T01900068  RH  045%=      5-min Rain = 0
KLA1 171930Z 19003KT 19/07 A3017 RMK A01 T01910068  RH  045%=      5-min Rain = 0
KLA1 171931Z 18006KT 19/07 A3018 RMK A01 T01920069  RH  045%=      5-min Rain = 0
KLA1 171932Z 17005KT 19/07 A3018 RMK A01 T01920070  RH  045%=      5-min Rain = 0
KLA1 171933Z 17005KT 19/07 A3018 RMK A01 T01920068  RH  045%=      5-min Rain = 0
KLA1 171934Z 17004KT 19/07 A3018 RMK A01 T01910065  RH  044%=      5-min Rain = 0
KLA1 171935Z 17002KT 19/07 A3018 RMK A01 T01900068  RH  045%=      5-min Rain = 0
KLA1 171936Z 22002KT 19/07 A3018 RMK A01 T01910069  RH  045%=      5-min Rain = 0
KLA1 171937Z 20004KT 19/07 A3018 RMK A01 T01920067  RH  044%=      5-min Rain = 0
KLA1 171938Z 19003KT 19/06 A3018 RMK A01 T01930061  RH  042%=      5-min Rain = 0
KLA1 171939Z 15004KT 19/06 A3018 RMK A01 T01930064  RH  043%=      5-min Rain = 0
KLA1 171940Z 17004KT 19/07 A3018 RMK A01 T01940066  RH  043%=      5-min Rain = 0
KLA1 171941Z 20004KT 20/07 A3018 RMK A01 T01950066  RH  043%=      5-min Rain = 0
KLA1 171942Z 22003KT 20/06 A3018 RMK A01 T01950062  RH  042%=      5-min Rain = 0
KLA1 171943Z 17003KT 20/06 A3018 RMK A01 T01950062  RH  042%=      5-min Rain = 0
KLA1 171944Z 17002KT 20/06 A3017 RMK A01 T01950062  RH  042%=      5-min Rain = 0
KLA1 171945Z 20001KT 20/06 A3017 RMK A01 T01960064  RH  042%=      5-min Rain = 0
KLA1 171946Z 21005KT 20/06 A3017 RMK A01 T01970064  RH  042%=      5-min Rain = 0
KLA1 171947Z 21003KT 20/06 A3017 RMK A01 T01960055  RH  040%=      5-min Rain = 0
KLA1 171948Z 23002KT 19/05 A3017 RMK A01 T01940053  RH  040%=      5-min Rain = 0
KLA1 171949Z 24004KT 19/06 A3017 RMK A01 T01940055  RH  040%=      5-min Rain = 0
KLA1 171950Z 23004KT 19/05 A3017 RMK A01 T01940052  RH  039%=      5-min Rain = 0
KLA1 171951Z 24004KT 19/06 A3017 RMK A01 T01940055  RH  040%=      5-min Rain = 0
KLA1 171952Z 27001KT 20/06 A3017 RMK A01 T01960055  RH  040%=      5-min Rain = 0
KLA1 171953Z 28002KT 20/06 A3017 RMK A01 T01960060  RH  041%=      5-min Rain = 0
KLA1 171954Z 26003KT 20/06 A3017 RMK A01 T01980062  RH  041%=      5-min Rain = 0
KLA1 171955Z 18005KT 20/06 A3017 RMK A01 T02000060  RH  040%=      5-min Rain = 0
KLA1 171956Z 21004KT 20/06 A3017 RMK A01 T02000055  RH  039%=      5-min Rain = 0
KLA1 171957Z 21004KT 20/05 A3017 RMK A01 T02000045  RH  036%=      5-min Rain = 0
KLA1 171958Z 21003KT 20/04 A3017 RMK A01 T01990041  RH  035%=      5-min Rain = 0
KLA1 171959Z 21003KT 20/05 A3017 RMK A01 T01980047  RH  037%=      5-min Rain = 0
KLA1 172000Z 22002KT 20/05 A3017 RMK A01 T01980049  RH  037%=      5-min Rain = 0
KLA1 172001Z 18001KT 20/04 A3017 RMK A01 T01990044  RH  036%=      5-min Rain = 0
KLA1 172002Z 14000KT 20/04 A3017 RMK A01 T01990042  RH  035%=      5-min Rain = 0
KLA1 172003Z 17003KT 20/04 A3017 RMK A01 T01990043  RH  036%=      5-min Rain = 0
KLA1 172004Z 20004KT 20/05 A3017 RMK A01 T02000045  RH  036%=      5-min Rain = 0
KLA1 172005Z 21005KT 20/04 A3016 RMK A01 T02010044  RH  036%=      5-min Rain = 0
KLA1 172006Z 22004KT 20/04 A3016 RMK A01 T02020042  RH  035%=      5-min Rain = 0
KLA1 172007Z 22002KT 20/04 A3016 RMK A01 T02020040  RH  034%=      5-min Rain = 0
KLA1 172008Z 22003KT 20/04 A3016 RMK A01 T02020035  RH  033%=      5-min Rain = 0
KLA1 172009Z 21006KT 20/04 A3016 RMK A01 T02020036  RH  033%=      5-min Rain = 0
KLA1 172010Z 21005KT 20/03 A3016 RMK A01 T02030033  RH  033%=      5-min Rain = 0
KLA1 172011Z 21004KT 20/04 A3016 RMK A01 T02020035  RH  033%=      5-min Rain = 0
KLA1 172012Z 19004KT 20/04 A3016 RMK A01 T02020044  RH  035%=      5-min Rain = 0
KLA1 172013Z 20004KT 20/05 A3016 RMK A01 T02040050  RH  036%=      5-min Rain = 0
KLA1 172014Z 21003KT 21/03 A3016 RMK A01 T02060034  RH  032%=      5-min Rain = 0
KLA1 172015Z 21002KT 20/03 A3016 RMK A01 T02040031  RH  032%=      5-min Rain = 0
KLA1 172016Z 18001KT 20/03 A3016 RMK A01 T02030030  RH  032%=      5-min Rain = 0
KLA1 172017Z 24004KT 20/04 A3016 RMK A01 T02030035  RH  033%=      5-min Rain = 0
KLA1 172018Z 22005KT 20/04 A3016 RMK A01 T02040040  RH  034%=      5-min Rain = 0
KLA1 172019Z 22003KT 21/04 A3016 RMK A01 T02050036  RH  033%=      5-min Rain = 0
KLA1 172020Z 19002KT 21/03 A3016 RMK A01 T02050032  RH  032%=      5-min Rain = 0
KLA1 172021Z 20001KT 21/04 A3016 RMK A01 T02050037  RH  033%=      5-min Rain = 0
KLA1 172022Z 24003KT 21/04 A3016 RMK A01 T02060037  RH  033%=      5-min Rain = 0
KLA1 172023Z 24002KT 21/03 A3016 RMK A01 T02060033  RH  032%=      5-min Rain = 0
KLA1 172024Z 25004KT 21/04 A3016 RMK A01 T02050039  RH  033%=      5-min Rain = 0
KLA1 172025Z 24005KT 21/04 A3016 RMK A01 T02050042  RH  034%=      5-min Rain = 0
KLA1 172026Z 22004KT 21/04 A3016 RMK A01 T02050035  RH  032%=      5-min Rain = 0
KLA1 172027Z 22003KT 21/04 A3016 RMK A01 T02050037  RH  033%=      5-min Rain = 0
KLA1 172028Z 22003KT 21/04 A3016 RMK A01 T02050037  RH  033%=      5-min Rain = 0
KLA1 172029Z 24002KT 21/03 A3016 RMK A01 T02060030  RH  031%=      5-min Rain = 0
KLA1 172030Z 26002KT 21/03 A3015 RMK A01 T02060031  RH  032%=      5-min Rain = 0
KLA1 172031Z 20001KT 21/04 A3015 RMK A01 T02060038  RH  033%=      5-min Rain = 0
KLA1 172032Z 18000KT 21/04 A3015 RMK A01 T02080038  RH  033%=      5-min Rain = 0
KLA1 172033Z 10001KT 21/03 A3015 RMK A01 T02090032  RH  031%=      5-min Rain = 0
KLA1 172034Z 00000KT 21/03 A3015 RMK A01 T02090032  RH  031%=      5-min Rain = 0
KLA1 172035Z 03000KT 21/04 A3015 RMK A01 T02100041  RH  033%=      5-min Rain = 0
KLA1 172036Z 26003KT 21/04 A3015 RMK A01 T02120040  RH  032%=      5-min Rain = 0
KLA1 172037Z 26002KT 21/04 A3015 RMK A01 T02120037  RH  032%=      5-min Rain = 0
KLA1 172038Z 28000KT 21/04 A3015 RMK A01 T02110039  RH  032%=      5-min Rain = 0
KLA1 172039Z 10001KT 21/04 A3015 RMK A01 T02110037  RH  032%=      5-min Rain = 0
KLA1 172040Z 13001KT 21/03 A3015 RMK A01 T02100033  RH  031%=      5-min Rain = 0
KLA1 172041Z 19002KT 21/04 A3015 RMK A01 T02090036  RH  032%=      5-min Rain = 0
KLA1 172042Z 19001KT 21/04 A3015 RMK A01 T02100044  RH  034%=      5-min Rain = 0
KLA1 172043Z 17003KT 21/04 A3015 RMK A01 T02120036  RH  031%=      5-min Rain = 0
KLA1 172044Z 15002KT 21/03 A3014 RMK A01 T02130030  RH  030%=      5-min Rain = 0
KLA1 172045Z 19004G9KT 21/03 A3014 RMK A01 T02130033  RH  031%=      5-min Rain = 0
KLA1 172046Z 20007KT 21/04 A3014 RMK A01 T02140039  RH  032%=      5-min Rain = 0
KLA1 172047Z 18008KT 21/04 A3014 RMK A01 T02140041  RH  032%=      5-min Rain = 0
KLA1 172048Z 17006KT 21/03 A3014 RMK A01 T02140031  RH  030%=      5-min Rain = 0
KLA1 172049Z 16004KT 21/03 A3014 RMK A01 T02120033  RH  031%=      5-min Rain = 0
KLA1 172050Z 16005KT 21/03 A3014 RMK A01 T02110032  RH  031%=      5-min Rain = 0
KLA1 172051Z 17005KT 21/04 A3014 RMK A01 T02110036  RH  032%=      5-min Rain = 0
KLA1 172052Z 18005KT 21/04 A3014 RMK A01 T02110036  RH  031%=      5-min Rain = 0
KLA1 172053Z 17006KT 21/04 A3014 RMK A01 T02120035  RH  031%=      5-min Rain = 0
KLA1 172054Z 18005KT 21/03 A3014 RMK A01 T02120028  RH  030%=      5-min Rain = 0
KLA1 172055Z 16003KT 21/02 A3014 RMK A01 T02120022  RH  029%=      5-min Rain = 0
KLA1 172056Z 17006KT 21/03 A3014 RMK A01 T02110028  RH  030%=      5-min Rain = 0
KLA1 172057Z 17006KT 21/03 A3014 RMK A01 T02120030  RH  030%=      5-min Rain = 0
KLA1 172058Z 16004KT 21/03 A3014 RMK A01 T02110030  RH  030%=      5-min Rain = 0
KLA1 172059Z 16004KT 21/03 A3014 RMK A01 T02110033  RH  031%=      5-min Rain = 0
KLA1 172100Z 19005KT 21/04 A3014 RMK A01 T02120036  RH  031%=      5-min Rain = 0
KLA1 172101Z 19006KT 21/04 A3014 RMK A01 T02130038  RH  032%=      5-min Rain = 0
KLA1 172102Z 19005KT 21/04 A3014 RMK A01 T02130042  RH  032%=      5-min Rain = 0
KLA1 172103Z 19004KT 21/04 A3014 RMK A01 T02130041  RH  032%=      5-min Rain = 0
KLA1 172104Z 20003KT 21/04 A3014 RMK A01 T02130035  RH  031%=      5-min Rain = 0
KLA1 172105Z 17003G10KT 21/04 A3014 RMK A01 T02130036  RH  031%=      5-min Rain = 0
KLA1 172106Z 19006KT 21/05 A3014 RMK A01 T02140045  RH  033%=      5-min Rain = 0
KLA1 172107Z 18005KT 22/05 A3014 RMK A01 T02150050  RH  034%=      5-min Rain = 0
KLA1 172108Z 17002KT 22/05 A3013 RMK A01 T02150053  RH  035%=      5-min Rain = 0
KLA1 172109Z 16003KT 22/05 A3013 RMK A01 T02150051  RH  034%=      5-min Rain = 0
KLA1 172110Z 19005KT 22/05 A3013 RMK A01 T02150054  RH  035%=      5-min Rain = 0
KLA1 172111Z 19004KT 22/06 A3013 RMK A01 T02150059  RH  036%=      5-min Rain = 0
KLA1 172112Z 21004KT 21/06 A3013 RMK A01 T02140057  RH  036%=      5-min Rain = 0
KLA1 172113Z 19002KT 21/06 A3013 RMK A01 T02140055  RH  035%=      5-min Rain = 0
KLA1 172114Z 15004KT 21/05 A3013 RMK A01 T02140054  RH  035%=      5-min Rain = 0
KLA1 172115Z 17005KT 21/06 A3013 RMK A01 T02140060  RH  037%=      5-min Rain = 0
KLA1 172116Z 17005KT 22/06 A3013 RMK A01 T02150062  RH  037%=      5-min Rain = 0
KLA1 172117Z 17005KT 22/06 A3013 RMK A01 T02160060  RH  036%=      5-min Rain = 0
KLA1 172118Z 17007KT 22/06 A3013 RMK A01 T02160057  RH  035%=      5-min Rain = 0
KLA1 172119Z 18005KT 22/06 A3013 RMK A01 T02150055  RH  035%=      5-min Rain = 0
KLA1 172120Z 16003KT 21/06 A3013 RMK A01 T02130056  RH  036%=      5-min Rain = 0
KLA1 172121Z 15003KT 21/05 A3013 RMK A01 T02130053  RH  035%=      5-min Rain = 0
KLA1 172122Z 15003KT 21/06 A3013 RMK A01 T02140056  RH  036%=      5-min Rain = 0
KLA1 172123Z 21002KT 22/05 A3013 RMK A01 T02150054  RH  035%=      5-min Rain = 0
KLA1 172124Z 18002KT 22/05 A3013 RMK A01 T02160050  RH  034%=      5-min Rain = 0
KLA1 172125Z 17005KT 22/06 A3013 RMK A01 T02170055  RH  035%=      5-min Rain = 0
KLA1 172126Z 20006KT 22/06 A3013 RMK A01 T02170059  RH  036%=      5-min Rain = 0
KLA1 172127Z 20006KT 22/06 A3013 RMK A01 T02170055  RH  035%=      5-min Rain = 0
KLA1 172128Z 20007KT 22/06 A3013 RMK A01 T02170055  RH  035%=      5-min Rain = 0
KLA1 172129Z 19006KT 22/05 A3013 RMK A01 T02160052  RH  034%=      5-min Rain = 0
KLA1 172130Z 20004KT 22/05 A3013 RMK A01 T02150048  RH  034%=      5-min Rain = 0
KLA1 172131Z 19003KT 22/05 A3013 RMK A01 T02150053  RH  035%=      5-min Rain = 0
KLA1 172132Z 19003KT 22/05 A3013 RMK A01 T02150045  RH  033%=      5-min Rain = 0
KLA1 172133Z 22001KT 22/05 A3013 RMK A01 T02150047  RH  033%=      5-min Rain = 0
KLA1 172134Z 13001KT 22/05 A3012 RMK A01 T02150049  RH  034%=      5-min Rain = 0
KLA1 172135Z 14002KT 22/05 A3012 RMK A01 T02170048  RH  033%=      5-min Rain = 0
KLA1 172136Z 17003KT 22/04 A3012 RMK A01 T02170043  RH  032%=      5-min Rain = 0
KLA1 172137Z 17002KT 22/05 A3012 RMK A01 T02170045  RH  032%=      5-min Rain = 0
KLA1 172138Z 16001KT 22/05 A3012 RMK A01 T02180048  RH  033%=      5-min Rain = 0
KLA1 172139Z 16000KT 22/05 A3012 RMK A01 T02190046  RH  032%=      5-min Rain = 0
KLA1 172140Z 22000KT 22/04 A3012 RMK A01 T02190044  RH  032%=      5-min Rain = 0
KLA1 172141Z 19003KT 22/05 A3012 RMK A01 T02210048  RH  032%=      5-min Rain = 0
KLA1 172142Z 17004KT 22/05 A3012 RMK A01 T02220049  RH  033%=      5-min Rain = 0
KLA1 172143Z 17004KT 22/05 A3012 RMK A01 T02220050  RH  032%=      5-min Rain = 0
KLA1 172144Z 17005KT 22/05 A3012 RMK A01 T02220047  RH  032%=      5-min Rain = 0
KLA1 172145Z 18004KT 22/04 A3012 RMK A01 T02200039  RH  030%=      5-min Rain = 0
KLA1 172146Z 15005KT 22/05 A3012 RMK A01 T02190045  RH  032%=      5-min Rain = 0
KLA1 172147Z 14004KT 22/05 A3012 RMK A01 T02180046  RH  032%=      5-min Rain = 0
KLA1 172148Z 12001KT 22/04 A3012 RMK A01 T02180038  RH  031%=      5-min Rain = 0
KLA1 172149Z 16003KT 22/04 A3012 RMK A01 T02170039  RH  031%=      5-min Rain = 0
KLA1 172150Z 15006KT 22/04 A3012 RMK A01 T02170041  RH  032%=      5-min Rain = 0
KLA1 172151Z 15005KT 22/04 A3012 RMK A01 T02170038  RH  031%=      5-min Rain = 0
KLA1 172152Z 14003KT 22/03 A3012 RMK A01 T02150034  RH  030%=      5-min Rain = 0
KLA1 172153Z 18002KT 21/04 A3012 RMK A01 T02140042  RH  032%=      5-min Rain = 0
KLA1 172154Z 20002KT 22/04 A3012 RMK A01 T02150039  RH  032%=      5-min Rain = 0
KLA1 172155Z 21002KT 22/04 A3011 RMK A01 T02150036  RH  031%=      5-min Rain = 0
KLA1 172156Z 20003KT 22/04 A3011 RMK A01 T02160039  RH  031%=      5-min Rain = 0
KLA1 172157Z 18003KT 22/04 A3011 RMK A01 T02170044  RH  032%=      5-min Rain = 0
KLA1 172158Z 16005KT 22/04 A3011 RMK A01 T02180043  RH  032%=      5-min Rain = 0
KLA1 172159Z 15005KT 22/04 A3011 RMK A01 T02180039  RH  031%=      5-min Rain = 0
KLA1 172200Z 14004KT 22/04 A3011 RMK A01 T02180037  RH  031%=      5-min Rain = 0
KLA1 172201Z 13005KT 22/04 A3011 RMK A01 T02180035  RH  030%=      5-min Rain = 0
KLA1 172202Z 12003KT 22/03 A3011 RMK A01 T02170032  RH  030%=      5-min Rain = 0
KLA1 172203Z 13004KT 22/04 A3011 RMK A01 T02160036  RH  031%=      5-min Rain = 0
KLA1 172204Z 11003KT 22/04 A3011 RMK A01 T02160038  RH  031%=      5-min Rain = 0
KLA1 172205Z 14002KT 22/04 A3011 RMK A01 T02150039  RH  031%=      5-min Rain = 0
KLA1 172206Z 19004KT 22/03 A3011 RMK A01 T02160033  RH  030%=      5-min Rain = 0
KLA1 172207Z 20004KT 22/03 A3011 RMK A01 T02160032  RH  030%=      5-min Rain = 0
KLA1 172208Z 20005KT 22/04 A3011 RMK A01 T02170038  RH  031%=      5-min Rain = 0
KLA1 172209Z 20005KT 22/04 A3011 RMK A01 T02170041  RH  031%=      5-min Rain = 0
KLA1 172210Z 22004KT 22/04 A3011 RMK A01 T02180040  RH  031%=      5-min Rain = 0
KLA1 172211Z 21004KT 22/04 A3011 RMK A01 T02180036  RH  030%=      5-min Rain = 0
KLA1 172212Z 19005KT 22/04 A3011 RMK A01 T02190036  RH  030%=      5-min Rain = 0
KLA1 172213Z 19004KT 22/03 A3012 RMK A01 T02190030  RH  029%=      5-min Rain = 0
KLA1 172214Z 20003KT 22/03 A3012 RMK A01 T02170034  RH  030%=      5-min Rain = 0
KLA1 172215Z 20003KT 22/03 A3012 RMK A01 T02170033  RH  030%=      5-min Rain = 0
KLA1 172216Z 19003KT 22/03 A3012 RMK A01 T02170029  RH  029%=      5-min Rain = 0
KLA1 172217Z 18003KT 22/03 A3012 RMK A01 T02170032  RH  030%=      5-min Rain = 0
KLA1 172218Z 15004KT 22/04 A3012 RMK A01 T02180039  RH  031%=      5-min Rain = 0
KLA1 172219Z 17004KT 22/03 A3012 RMK A01 T02180034  RH  030%=      5-min Rain = 0
KLA1 172220Z 16002KT 22/03 A3012 RMK A01 T02180030  RH  029%=      5-min Rain = 0
KLA1 172221Z 19003KT 22/03 A3012 RMK A01 T02180034  RH  030%=      5-min Rain = 0
KLA1 172222Z 22005KT 22/04 A3012 RMK A01 T02190041  RH  031%=      5-min Rain = 0
KLA1 172223Z 23003KT 22/04 A3012 RMK A01 T02190037  RH  030%=      5-min Rain = 0
KLA1 172224Z 24002KT 22/03 A3012 RMK A01 T02180030  RH  029%=      5-min Rain = 0
KLA1 172225Z 21002KT 22/03 A3012 RMK A01 T02170032  RH  029%=      5-min Rain = 0
KLA1 172226Z 19002KT 22/03 A3012 RMK A01 T02170032  RH  030%=      5-min Rain = 0
KLA1 172227Z 16004KT 22/03 A3012 RMK A01 T02170034  RH  030%=      5-min Rain = 0
KLA1 172228Z 16004KT 22/04 A3012 RMK A01 T02170041  RH  032%=      5-min Rain = 0
KLA1 172229Z 15005KT 22/04 A3012 RMK A01 T02170040  RH  031%=      5-min Rain = 0
KLA1 172230Z 14006KT 22/04 A3012 RMK A01 T02160043  RH  032%=      5-min Rain = 0
KLA1 172231Z 16006KT 22/04 A3012 RMK A01 T02160036  RH  031%=      5-min Rain = 0
KLA1 172232Z 14006KT 22/04 A3012 RMK A01 T02150035  RH  031%=      5-min Rain = 0
KLA1 172233Z 16004KT 21/04 A3012 RMK A01 T02140041  RH  032%=      5-min Rain = 0
KLA1 172234Z 16004KT 21/04 A3012 RMK A01 T02140038  RH  031%=      5-min Rain = 0
KLA1 172235Z 17005KT 21/04 A3012 RMK A01 T02140036  RH  031%=      5-min Rain = 0
KLA1 172236Z 17004KT 21/03 A3012 RMK A01 T02140034  RH  031%=      5-min Rain = 0
KLA1 172237Z 15003KT 21/04 A3012 RMK A01 T02140035  RH  031%=      5-min Rain = 0
KLA1 172238Z 15002KT 21/04 A3013 RMK A01 T02130041  RH  032%=      5-min Rain = 0
KLA1 172239Z 15003KT 21/04 A3013 RMK A01 T02140038  RH  032%=      5-min Rain = 0
KLA1 172240Z 13003KT 21/04 A3013 RMK A01 T02140037  RH  031%=      5-min Rain = 0
KLA1 172241Z 12002KT 21/03 A3013 RMK A01 T02140034  RH  031%=      5-min Rain = 0
KLA1 172242Z 12003KT 21/03 A3013 RMK A01 T02140030  RH  030%=      5-min Rain = 0
KLA1 172243Z 13004KT 21/03 A3013 RMK A01 T02130032  RH  030%=      5-min Rain = 0
KLA1 172244Z 14005KT 21/04 A3013 RMK A01 T02130041  RH  032%=      5-min Rain = 0
KLA1 172245Z 16006KT 21/04 A3013 RMK A01 T02130040  RH  032%=      5-min Rain = 0
KLA1 172246Z 16005KT 21/04 A3012 RMK A01 T02130039  RH  032%=      5-min Rain = 0
KLA1 172247Z 13005KT 21/04 A3012 RMK A01 T02130040  RH  032%=      5-min Rain = 0
KLA1 172248Z 14004KT 21/04 A3012 RMK A01 T02120037  RH  032%=      5-min Rain = 0
KLA1 172249Z 14005KT 21/04 A3012 RMK A01 T02120035  RH  031%=      5-min Rain = 0
KLA1 172250Z 14005KT 21/04 A3012 RMK A01 T02120036  RH  031%=      5-min Rain = 0
KLA1 172251Z 13005KT 21/03 A3012 RMK A01 T02110034  RH  031%=      5-min Rain = 0
KLA1 172252Z 14004KT 21/04 A3012 RMK A01 T02100039  RH  032%=      5-min Rain = 0
KLA1 172253Z 13004KT 21/04 A3012 RMK A01 T02100038  RH  032%=      5-min Rain = 0
KLA1 172254Z 14004KT 21/04 A3012 RMK A01 T02100036  RH  032%=      5-min Rain = 0
KLA1 172255Z 13005KT 21/04 A3012 RMK A01 T02090039  RH  033%=      5-min Rain = 0
KLA1 172256Z 11005KT 21/04 A3012 RMK A01 T02090039  RH  033%=      5-min Rain = 0
KLA1 172257Z 12006KT 21/04 A3012 RMK A01 T02090036  RH  032%=      5-min Rain = 0
KLA1 172258Z 13006KT 21/04 A3012 RMK A01 T02080037  RH  032%=      5-min Rain = 0
KLA1 172259Z 14005KT 21/04 A3012 RMK A01 T02070040  RH  033%=      5-min Rain = 0
KLA1 172300Z 14006KT 21/04 A3012 RMK A01 T02080043  RH  034%=      5-min Rain = 0
KLA1 172301Z 13005KT 21/04 A3012 RMK A01 T02080038  RH  033%=      5-min Rain = 0
KLA1 172302Z 13006KT 21/04 A3012 RMK A01 T02080039  RH  033%=      5-min Rain = 0
KLA1 172303Z 13005KT 21/04 A3012 RMK A01 T02070035  RH  032%=      5-min Rain = 0
KLA1 172304Z 12005KT 21/04 A3012 RMK A01 T02080037  RH  032%=      5-min Rain = 0
KLA1 172305Z 13006KT 21/04 A3012 RMK A01 T02080038  RH  033%=      5-min Rain = 0
KLA1 172306Z 14006KT 21/04 A3012 RMK A01 T02080036  RH  032%=      5-min Rain = 0
KLA1 172307Z 12005KT 21/04 A3012 RMK A01 T02070037  RH  033%=      5-min Rain = 0
KLA1 172308Z 13005KT 21/04 A3012 RMK A01 T02080036  RH  032%=      5-min Rain = 0
KLA1 172309Z 13006KT 21/04 A3012 RMK A01 T02070035  RH  032%=      5-min Rain = 0
KLA1 172310Z 13006KT 21/04 A3012 RMK A01 T02070038  RH  033%=      5-min Rain = 0
KLA1 172311Z 13006KT 21/04 A3012 RMK A01 T02060040  RH  033%=      5-min Rain = 0
KLA1 172312Z 13007KT 21/04 A3012 RMK A01 T02060041  RH  034%=      5-min Rain = 0
KLA1 172313Z 13007KT 21/04 A3012 RMK A01 T02050039  RH  033%=      5-min Rain = 0
KLA1 172314Z 14006KT 21/04 A3012 RMK A01 T02050039  RH  033%=      5-min Rain = 0
KLA1 172315Z 13006KT 21/04 A3012 RMK A01 T02050039  RH  034%=      5-min Rain = 0
KLA1 172316Z 13005KT 21/04 A3012 RMK A01 T02050041  RH  034%=      5-min Rain = 0
KLA1 172317Z 14006KT 21/04 A3012 RMK A01 T02050043  RH  034%=      5-min Rain = 0
KLA1 172318Z 14006KT 21/04 A3012 RMK A01 T02050041  RH  034%=      5-min Rain = 0
KLA1 172319Z 14006KT 21/04 A3012 RMK A01 T02050041  RH  034%=      5-min Rain = 0
KLA1 172320Z 14005KT 21/04 A3012 RMK A01 T02050043  RH  035%=      5-min Rain = 0
KLA1 172321Z 14004KT 21/04 A3012 RMK A01 T02050044  RH  035%=      5-min Rain = 0
KLA1 172322Z 14007KT 21/04 A3012 RMK A01 T02050044  RH  035%=      5-min Rain = 0
KLA1 172323Z 14007KT 21/04 A3012 RMK A01 T02050041  RH  034%=      5-min Rain = 0
KLA1 172324Z 14006KT 21/04 A3012 RMK A01 T02050041  RH  034%=      5-min Rain = 0
KLA1 172325Z 13005KT 20/05 A3012 RMK A01 T02040045  RH  035%=      5-min Rain = 0
KLA1 172326Z 13005KT 20/04 A3012 RMK A01 T02040043  RH  035%=      5-min Rain = 0
KLA1 172327Z 13004KT 20/05 A3012 RMK A01 T02030045  RH  035%=      5-min Rain = 0
KLA1 172328Z 13006KT 20/05 A3012 RMK A01 T02020045  RH  036%=      5-min Rain = 0
KLA1 172329Z 14006KT 20/04 A3012 RMK A01 T02010043  RH  035%=      5-min Rain = 0
KLA1 172330Z 13004KT 20/05 A3012 RMK A01 T02000046  RH  036%=      5-min Rain = 0
KLA1 172331Z 13005KT 20/05 A3012 RMK A01 T01990048  RH  037%=      5-min Rain = 0
KLA1 172332Z 13005KT 20/05 A3012 RMK A01 T01980045  RH  037%=      5-min Rain = 0
KLA1 172333Z 13004KT 20/05 A3012 RMK A01 T01970045  RH  037%=      5-min Rain = 0
KLA1 172334Z 14004KT 20/05 A3012 RMK A01 T01960046  RH  037%=      5-min Rain = 0
KLA1 172335Z 14005KT 20/05 A3012 RMK A01 T01950048  RH  038%=      5-min Rain = 0
KLA1 172336Z 14004KT 19/05 A3012 RMK A01 T01940047  RH  038%=      5-min Rain = 0
KLA1 172337Z 13004KT 19/05 A3012 RMK A01 T01930047  RH  038%=      5-min Rain = 0
KLA1 172338Z 13004KT 19/05 A3012 RMK A01 T01920049  RH  039%=      5-min Rain = 0
KLA1 172339Z 13004KT 19/05 A3012 RMK A01 T01910049  RH  039%=      5-min Rain = 0
KLA1 172340Z 13004KT 19/05 A3012 RMK A01 T01900049  RH  040%=      5-min Rain = 0
KLA1 172341Z 13004KT 19/05 A3012 RMK A01 T01880049  RH  040%=      5-min Rain = 0
KLA1 172342Z 13004KT 19/05 A3012 RMK A01 T01870048  RH  040%=      5-min Rain = 0
KLA1 172343Z 13004KT 19/05 A3012 RMK A01 T01860048  RH  040%=      5-min Rain = 0
KLA1 172344Z 12004KT 19/05 A3012 RMK A01 T01860048  RH  040%=      5-min Rain = 0
KLA1 172345Z 12004KT 19/05 A3011 RMK A01 T01850049  RH  041%=      5-min Rain = 0
KLA1 172346Z 12004KT 18/05 A3011 RMK A01 T01840048  RH  041%=      5-min Rain = 0
KLA1 172347Z 12004KT 18/05 A3011 RMK A01 T01840049  RH  041%=      5-min Rain = 0
KLA1 172348Z 12004KT 18/05 A3011 RMK A01 T01830048  RH  041%=      5-min Rain = 0
KLA1 172349Z 12004KT 18/05 A3011 RMK A01 T01820048  RH  041%=      5-min Rain = 0
KLA1 172350Z 12005KT 18/05 A3011 RMK A01 T01810048  RH  041%=      5-min Rain = 0
KLA1 172351Z 12004KT 18/05 A3011 RMK A01 T01810047  RH  041%=      5-min Rain = 0
KLA1 172352Z 12005KT 18/05 A3011 RMK A01 T01800046  RH  041%=      5-min Rain = 0
KLA1 172353Z 12005KT 18/05 A3011 RMK A01 T01790047  RH  041%=      5-min Rain = 0
KLA1 172354Z 12005KT 18/05 A3011 RMK A01 T01790046  RH  041%=      5-min Rain = 0
KLA1 172355Z 12005KT 18/05 A3011 RMK A01 T01780047  RH  042%=      5-min Rain = 0
KLA1 172356Z 12004KT 18/05 A3011 RMK A01 T01780046  RH  042%=      5-min Rain = 0
KLA1 172357Z 12004KT 18/05 A3011 RMK A01 T01770046  RH  042%=      5-min Rain = 0
KLA1 172358Z 12004KT 18/05 A3011 RMK A01 T01760046  RH  042%=      5-min Rain = 0
KLA1 172359Z 12004KT 18/05 A3011 RMK A01 T01750045  RH  042%=      5-min Rain = 0
KLA1 180000Z 12004KT 18/05 A3011 RMK A01 T01750045  RH  042%=      5-min Rain = 0
KLA1 180001Z 12005KT 18/04 A3011 RMK A01 T01750044  RH  042%=      5-min Rain = 0
KLA1 180002Z 11004KT 17/04 A3011 RMK A01 T01740044  RH  042%=      5-min Rain = 0
KLA1 180003Z 11004KT 17/04 A3011 RMK A01 T01740043  RH  042%=      5-min Rain = 0
KLA1 180004Z 11004KT 17/04 A3011 RMK A01 T01740042  RH  042%=      5-min Rain = 0
KLA1 180005Z 11004KT 17/04 A3011 RMK A01 T01740042  RH  041%=      5-min Rain = 0
KLA1 180006Z 11004KT 17/04 A3011 RMK A01 T01730041  RH  041%=      5-min Rain = 0
KLA1 180007Z 11004KT 17/04 A3011 RMK A01 T01730040  RH  041%=      5-min Rain = 0
KLA1 180008Z 10004KT 17/04 A301 RMK A01 T01730041  RH  041%=      5-min Rain = 0
KLA1 180009Z 10003KT 17/04 A301 RMK A01 T01720040  RH  041%=      5-min Rain = 0
KLA1 180010Z 10003KT 17/04 A301 RMK A01 T01720041  RH  042%=      5-min Rain = 0
KLA1 180011Z 10003KT 17/04 A301 RMK A01 T01710043  RH  043%=      5-min Rain = 0
KLA1 180012Z 10003KT 17/04 A301 RMK A01 T01700044  RH  043%=      5-min Rain = 0
KLA1 180013Z 09004KT 17/05 A301 RMK A01 T01690045  RH  044%=      5-min Rain = 0
KLA1 180014Z 09003KT 17/05 A301 RMK A01 T01680046  RH  044%=      5-min Rain = 0
KLA1 180015Z 09003KT 17/05 A3011 RMK A01 T01670045  RH  044%=      5-min Rain = 0
KLA1 180016Z 09003KT 17/05 A3011 RMK A01 T01670045  RH  044%=      5-min Rain = 0
KLA1 180017Z 09003KT 17/05 A3011 RMK A01 T01660045  RH  044%=      5-min Rain = 0
KLA1 180018Z 08003KT 17/04 A3011 RMK A01 T01660044  RH  044%=      5-min Rain = 0
KLA1 180019Z 08003KT 17/04 A3011 RMK A01 T01660043  RH  044%=      5-min Rain = 0
KLA1 180020Z 08003KT 17/04 A3011 RMK A01 T01660043  RH  044%=      5-min Rain = 0
KLA1 180021Z 07003KT 17/04 A3011 RMK A01 T01660043  RH  044%=      5-min Rain = 0
KLA1 180022Z 07003KT 17/04 A3011 RMK A01 T01670042  RH  044%=      5-min Rain = 0
KLA1 180023Z 07003KT 17/04 A3011 RMK A01 T01670042  RH  043%=      5-min Rain = 0
KLA1 180024Z 08003KT 17/04 A3011 RMK A01 T01670043  RH  044%=      5-min Rain = 0
KLA1 180025Z 07003KT 17/04 A3011 RMK A01 T01670043  RH  044%=      5-min Rain = 0
KLA1 180026Z 07004KT 17/04 A3011 RMK A01 T01660043  RH  044%=      5-min Rain = 0
KLA1 180027Z 08004KT 17/04 A3011 RMK A01 T01660043  RH  044%=      5-min Rain = 0
KLA1 180028Z 08003KT 17/04 A3011 RMK A01 T01650043  RH  044%=      5-min Rain = 0
KLA1 180029Z 08003KT 17/04 A3011 RMK A01 T01650043  RH  044%=      5-min Rain = 0
KLA1 180030Z 08004KT 17/04 A3011 RMK A01 T01650043  RH  044%=      5-min Rain = 0
KLA1 180031Z 07003KT 17/04 A3011 RMK A01 T01650042  RH  044%=      5-min Rain = 0
KLA1 180032Z 06003KT 17/04 A3011 RMK A01 T01650042  RH  044%=      5-min Rain = 0
KLA1 180033Z 06002KT 17/04 A3011 RMK A01 T01660044  RH  044%=      5-min Rain = 0
KLA1 180034Z 07002KT 16/04 A3011 RMK A01 T01640043  RH  045%=      5-min Rain = 0
KLA1 180035Z 06002KT 16/04 A3011 RMK A01 T01640043  RH  044%=      5-min Rain = 0
KLA1 180036Z 05002KT 16/04 A3011 RMK A01 T01640043  RH  045%=      5-min Rain = 0
KLA1 180037Z 05002KT 16/05 A3011 RMK A01 T01630045  RH  045%=      5-min Rain = 0
KLA1 180038Z 05002KT 16/04 A3011 RMK A01 T01630042  RH  045%=      5-min Rain = 0
KLA1 180039Z 06002KT 16/04 A3011 RMK A01 T01630043  RH  045%=      5-min Rain = 0
KLA1 180040Z 06002KT 16/04 A3011 RMK A01 T01620043  RH  045%=      5-min Rain = 0
KLA1 180041Z 05002KT 16/04 A3011 RMK A01 T01620043  RH  045%=      5-min Rain = 0
KLA1 180042Z 05002KT 16/04 A3011 RMK A01 T01620044  RH  045%=      5-min Rain = 0
KLA1 180043Z 05002KT 16/04 A3011 RMK A01 T01620043  RH  045%=      5-min Rain = 0
KLA1 180044Z 05002KT 16/05 A3011 RMK A01 T01630045  RH  046%=      5-min Rain = 0
KLA1 180045Z 04002KT 16/04 A3011 RMK A01 T01610043  RH  045%=      5-min Rain = 0
KLA1 180046Z 06002KT 16/05 A3011 RMK A01 T01610045  RH  046%=      5-min Rain = 0
KLA1 180047Z 06002KT 16/04 A3011 RMK A01 T01600044  RH  046%=      5-min Rain = 0
KLA1 180048Z 06002KT 16/04 A3011 RMK A01 T01600044  RH  046%=      5-min Rain = 0
KLA1 180049Z 06002KT 16/05 A3011 RMK A01 T01590045  RH  046%=      5-min Rain = 0
KLA1 180050Z 06002KT 16/05 A3011 RMK A01 T01580045  RH  047%=      5-min Rain = 0
KLA1 180051Z 06003KT 16/04 A3011 RMK A01 T01570044  RH  047%=      5-min Rain = 0
KLA1 180052Z 07003KT 16/04 A3011 RMK A01 T01570044  RH  047%=      5-min Rain = 0
KLA1 180053Z 08003KT 16/04 A3011 RMK A01 T01580043  RH  046%=      5-min Rain = 0
KLA1 180054Z 09003KT 16/04 A3011 RMK A01 T01580043  RH  046%=      5-min Rain = 0
KLA1 180055Z 09003KT 16/04 A3011 RMK A01 T01590044  RH  046%=      5-min Rain = 0
KLA1 180056Z 10003KT 16/04 A3011 RMK A01 T01580044  RH  047%=      5-min Rain = 0
KLA1 180057Z 10003KT 16/04 A3011 RMK A01 T01580042  RH  046%=      5-min Rain = 0
KLA1 180058Z 11003KT 16/04 A3011 RMK A01 T01580042  RH  046%=      5-min Rain = 0
KLA1 180059Z 11003KT 16/04 A3011 RMK A01 T01580042  RH  046%=      5-min Rain = 0
KLA1 180100Z 11003KT 16/04 A3011 RMK A01 T01580043  RH  046%=      5-min Rain = 0
KLA1 180101Z 12003KT 16/04 A3011 RMK A01 T01580044  RH  047%=      5-min Rain = 0
KLA1 180102Z 13002KT 16/05 A3011 RMK A01 T01560048  RH  048%=      5-min Rain = 0
KLA1 180103Z 13002KT 15/05 A3011 RMK A01 T01540045  RH  048%=      5-min Rain = 0
KLA1 180104Z 13003KT 15/04 A3012 RMK A01 T01530043  RH  048%=      5-min Rain = 0
KLA1 180105Z 13002KT 15/04 A3012 RMK A01 T01520043  RH  048%=      5-min Rain = 0
KLA1 180106Z 15001KT 15/04 A3012 RMK A01 T01520043  RH  048%=      5-min Rain = 0
KLA1 180107Z 17000KT 15/04 A3012 RMK A01 T01520043  RH  048%=      5-min Rain = 0
KLA1 180108Z 00000KT 15/04 A3012 RMK A01 T01520043  RH  048%=      5-min Rain = 0
KLA1 180109Z 00000KT 15/05 A3012 RMK A01 T01500053  RH  052%=      5-min Rain = 0
KLA1 180110Z 26000KT 15/05 A3012 RMK A01 T01460052  RH  053%=      5-min Rain = 0
KLA1 180111Z 28000KT 14/05 A3012 RMK A01 T01430053  RH  055%=      5-min Rain = 0
KLA1 180112Z 30001KT 14/05 A3012 RMK A01 T01400052  RH  055%=      5-min Rain = 0
KLA1 180113Z 29001KT 14/05 A3012 RMK A01 T01380051  RH  056%=      5-min Rain = 0
KLA1 180114Z 28001KT 14/05 A3012 RMK A01 T01370054  RH  057%=      5-min Rain = 0
KLA1 180115Z 28000KT 14/05 A3012 RMK A01 T01360049  RH  056%=      5-min Rain = 0
KLA1 180116Z 28001KT 14/05 A3012 RMK A01 T01350047  RH  055%=      5-min Rain = 0
KLA1 180117Z 27001KT 14/05 A3012 RMK A01 T01360048  RH  055%=      5-min Rain = 0
KLA1 180118Z 26001KT 14/05 A3012 RMK A01 T01360051  RH  056%=      5-min Rain = 0
KLA1 180119Z 25001KT 14/05 A3012 RMK A01 T01350053  RH  057%=      5-min Rain = 0
KLA1 180120Z 26001KT 13/05 A3012 RMK A01 T01340050  RH  057%=      5-min Rain = 0
KLA1 180121Z 26000KT 13/05 A3012 RMK A01 T01330048  RH  056%=      5-min Rain = 0
KLA1 180122Z 00000KT 13/05 A3012 RMK A01 T01320047  RH  056%=      5-min Rain = 0
KLA1 180123Z 00000KT 13/05 A3012 RMK A01 T01320048  RH  057%=      5-min Rain = 0
KLA1 180124Z 00000KT 13/05 A3012 RMK A01 T01310053  RH  059%=      5-min Rain = 0
KLA1 180125Z 00000KT 13/05 A3012 RMK A01 T01280054  RH  061%=      5-min Rain = 0
KLA1 180126Z 00000KT 12/05 A3012 RMK A01 T01240052  RH  061%=      5-min Rain = 0
KLA1 180127Z 00000KT 12/05 A3012 RMK A01 T01220050  RH  062%=      5-min Rain = 0
KLA1 180128Z 04001KT 12/05 A3012 RMK A01 T01210049  RH  062%=      5-min Rain = 0
KLA1 180129Z 05001KT 12/05 A3012 RMK A01 T01200049  RH  062%=      5-min Rain = 0
KLA1 180130Z 05001KT 12/05 A3012 RMK A01 T01190048  RH  062%=      5-min Rain = 0
KLA1 180131Z 04001KT 12/05 A3012 RMK A01 T01200046  RH  061%=      5-min Rain = 0
KLA1 180132Z 04002KT 12/05 A3012 RMK A01 T01210046  RH  060%=      5-min Rain = 0
KLA1 180133Z 05002KT 12/05 A3012 RMK A01 T01220047  RH  060%=      5-min Rain = 0
KLA1 180134Z 05002KT 12/05 A3012 RMK A01 T01220047  RH  060%=      5-min Rain = 0
KLA1 180135Z 06002KT 12/05 A3012 RMK A01 T01230046  RH  059%=      5-min Rain = 0
KLA1 180136Z 06002KT 12/05 A3011 RMK A01 T01240047  RH  059%=      5-min Rain = 0
KLA1 180137Z 08002KT 12/05 A3011 RMK A01 T01240046  RH  059%=      5-min Rain = 0
KLA1 180138Z 09002KT 13/05 A3011 RMK A01 T01250045  RH  058%=      5-min Rain = 0
KLA1 180139Z 11002KT 13/04 A3011 RMK A01 T01270044  RH  057%=      5-min Rain = 0
KLA1 180140Z 10002KT 13/05 A3012 RMK A01 T01290045  RH  056%=      5-min Rain = 0
KLA1 180141Z 11002KT 13/04 A3012 RMK A01 T01300044  RH  056%=      5-min Rain = 0
KLA1 180142Z 12002KT 13/04 A3012 RMK A01 T01310044  RH  055%=      5-min Rain = 0
KLA1 180143Z 12002KT 13/04 A3012 RMK A01 T01310043  RH  055%=      5-min Rain = 0
KLA1 180144Z 13002KT 13/04 A3012 RMK A01 T01320043  RH  055%=      5-min Rain = 0
KLA1 180145Z 12002KT 13/04 A3012 RMK A01 T01340043  RH  054%=      5-min Rain = 0
KLA1 180146Z 11002KT 13/04 A3011 RMK A01 T01330043  RH  054%=      5-min Rain = 0
KLA1 180147Z 09002KT 13/04 A3011 RMK A01 T01330042  RH  054%=      5-min Rain = 0
KLA1 180148Z 09002KT 13/04 A3011 RMK A01 T01330044  RH  055%=      5-min Rain = 0
KLA1 180149Z 08002KT 13/04 A3011 RMK A01 T01310044  RH  056%=      5-min Rain = 0
KLA1 180150Z 07002KT 13/04 A3011 RMK A01 T01300043  RH  056%=      5-min Rain = 0
KLA1 180151Z 07003KT 13/04 A3011 RMK A01 T01300042  RH  055%=      5-min Rain = 0
KLA1 180152Z 08003KT 13/04 A3011 RMK A01 T01320042  RH  054%=      5-min Rain = 0
KLA1 180153Z 08002KT 13/04 A3011 RMK A01 T01330042  RH  054%=      5-min Rain = 0
KLA1 180154Z 07003KT 13/04 A3011 RMK A01 T01330044  RH  055%=      5-min Rain = 0
KLA1 180155Z 08003KT 13/04 A3011 RMK A01 T01310042  RH  055%=      5-min Rain = 0
KLA1 180156Z 07003KT 13/04 A3011 RMK A01 T01320040  RH  054%=      5-min Rain = 0
KLA1 180157Z 09003KT 13/04 A3011 RMK A01 T01330040  RH  053%=      5-min Rain = 0
KLA1 180158Z 09003KT 13/04 A3011 RMK A01 T01340040  RH  053%=      5-min Rain = 0
KLA1 180159Z 09003KT 13/04 A3011 RMK A01 T01340040  RH  053%=      5-min Rain = 0
KLA1 180200Z 09004KT 13/04 A3011 RMK A01 T01340040  RH  053%=      5-min Rain = 0
KLA1 180201Z 10004KT 13/04 A3011 RMK A01 T01330041  RH  054%=      5-min Rain = 0
KLA1 180202Z 10004KT 13/04 A3011 RMK A01 T01320041  RH  054%=      5-min Rain = 0
KLA1 180203Z 10003KT 13/04 A3011 RMK A01 T01310041  RH  054%=      5-min Rain = 0
KLA1 180204Z 10004KT 13/04 A3011 RMK A01 T01320041  RH  054%=      5-min Rain = 0
KLA1 180205Z 10004KT 13/04 A3011 RMK A01 T01310041  RH  054%=      5-min Rain = 0
KLA1 180206Z 09004KT 13/04 A3011 RMK A01 T01310041  RH  055%=      5-min Rain = 0
KLA1 180207Z 10005KT 13/04 A3011 RMK A01 T01300041  RH  055%=      5-min Rain = 0
KLA1 180208Z 10003KT 13/04 A3011 RMK A01 T01300040  RH  054%=      5-min Rain = 0
KLA1 180209Z 10004KT 13/04 A3011 RMK A01 T01310040  RH  054%=      5-min Rain = 0
KLA1 180210Z 10003KT 13/04 A3011 RMK A01 T01320040  RH  053%=      5-min Rain = 0
KLA1 180211Z 10003KT 13/04 A3011 RMK A01 T01330040  RH  053%=      5-min Rain = 0
KLA1 180212Z 11002KT 13/04 A3011 RMK A01 T01340040  RH  053%=      5-min Rain = 0
KLA1 180213Z 12001KT 14/04 A3011 RMK A01 T01350039  RH  052%=      5-min Rain = 0
KLA1 180214Z 13002KT 14/04 A3011 RMK A01 T01350040  RH  052%=      5-min Rain = 0
KLA1 180215Z 14001KT 14/04 A3011 RMK A01 T01350040  RH  052%=      5-min Rain = 0
KLA1 180216Z 17001KT 13/05 A3011 RMK A01 T01330047  RH  056%=      5-min Rain = 0
KLA1 180217Z 18000KT 13/05 A3012 RMK A01 T01280046  RH  057%=      5-min Rain = 0
KLA1 180218Z 25001KT 13/05 A3012 RMK A01 T01250047  RH  059%=      5-min Rain = 0
KLA1 180219Z 22001KT 12/05 A3012 RMK A01 T01230047  RH  060%=      5-min Rain = 0
KLA1 180220Z 19001KT 12/05 A3012 RMK A01 T01220046  RH  060%=      5-min Rain = 0
KLA1 180221Z 17000KT 12/05 A3012 RMK A01 T01230045  RH  059%=      5-min Rain = 0
KLA1 180222Z 15001KT 12/04 A3012 RMK A01 T01230044  RH  058%=      5-min Rain = 0
KLA1 180223Z 13001KT 12/04 A3012 RMK A01 T01240044  RH  058%=      5-min Rain = 0
KLA1 180224Z 12002KT 12/04 A3012 RMK A01 T01230044  RH  058%=      5-min Rain = 0
KLA1 180225Z 12003KT 12/04 A3012 RMK A01 T01240042  RH  057%=      5-min Rain = 0
KLA1 180226Z 12003KT 13/04 A3012 RMK A01 T01250042  RH  057%=      5-min Rain = 0
KLA1 180227Z 11005KT 13/04 A3012 RMK A01 T01260042  RH  056%=      5-min Rain = 0
KLA1 180228Z 11005KT 13/04 A3011 RMK A01 T01270042  RH  056%=      5-min Rain = 0
KLA1 180229Z 11005KT 13/04 A3011 RMK A01 T01280041  RH  056%=      5-min Rain = 0
KLA1 180230Z 11006KT 13/04 A3011 RMK A01 T01280042  RH  056%=      5-min Rain = 0
KLA1 180231Z 11006KT 13/04 A3011 RMK A01 T01280042  RH  056%=      5-min Rain = 0
KLA1 180232Z 11006KT 13/04 A3011 RMK A01 T01300043  RH  056%=      5-min Rain = 0
KLA1 180233Z 10006KT 13/04 A3011 RMK A01 T01310043  RH  055%=      5-min Rain = 0
KLA1 180234Z 10005KT 13/04 A3011 RMK A01 T01330043  RH  054%=      5-min Rain = 0
KLA1 180235Z 10005KT 13/04 A3011 RMK A01 T01340043  RH  054%=      5-min Rain = 0
KLA1 180236Z 10005KT 14/04 A3011 RMK A01 T01350043  RH  054%=      5-min Rain = 0
KLA1 180237Z 10005KT 14/04 A3011 RMK A01 T01350043  RH  054%=      5-min Rain = 0
KLA1 180238Z 10005KT 14/04 A3011 RMK A01 T01360043  RH  054%=      5-min Rain = 0
KLA1 180239Z 10005KT 14/04 A3011 RMK A01 T01360043  RH  053%=      5-min Rain = 0
KLA1 180240Z 10004KT 14/04 A3011 RMK A01 T01360043  RH  053%=      5-min Rain = 0
KLA1 180241Z 10004KT 14/04 A3011 RMK A01 T01360043  RH  053%=      5-min Rain = 0
KLA1 180242Z 10004KT 14/04 A3011 RMK A01 T01350043  RH  054%=      5-min Rain = 0
KLA1 180243Z 11004KT 14/04 A301 RMK A01 T01350043  RH  054%=      5-min Rain = 0
KLA1 180244Z 11005KT 14/04 A301 RMK A01 T01360043  RH  053%=      5-min Rain = 0
KLA1 180245Z 10004KT 14/04 A301 RMK A01 T01380044  RH  053%=      5-min Rain = 0
KLA1 180246Z 10004KT 14/04 A301 RMK A01 T01400044  RH  052%=      5-min Rain = 0
KLA1 180247Z 09005KT 14/04 A301 RMK A01 T01420044  RH  052%=      5-min Rain = 0
KLA1 180248Z 10004KT 14/04 A301 RMK A01 T01420044  RH  052%=      5-min Rain = 0
KLA1 180249Z 10004KT 14/04 A301 RMK A01 T01430044  RH  051%=      5-min Rain = 0
KLA1 180250Z 10005KT 14/04 A301 RMK A01 T01430044  RH  051%=      5-min Rain = 0
KLA1 180251Z 10004KT 14/04 A301 RMK A01 T01430043  RH  051%=      5-min Rain = 0
KLA1 180252Z 09004KT 14/04 A301 RMK A01 T01440042  RH  050%=      5-min Rain = 0
KLA1 180253Z 10004KT 14/04 A301 RMK A01 T01440043  RH  051%=      5-min Rain = 0
KLA1 180254Z 09003KT 14/04 A301 RMK A01 T01440043  RH  051%=      5-min Rain = 0
KLA1 180255Z 09004KT 14/04 A301 RMK A01 T01430043  RH  051%=      5-min Rain = 0
KLA1 180256Z 10005KT 14/04 A301 RMK A01 T01430043  RH  051%=      5-min Rain = 0
KLA1 180257Z 10005KT 14/04 A301 RMK A01 T01420044  RH  052%=      5-min Rain = 0
KLA1 180258Z 10005KT 14/04 A301 RMK A01 T01410043  RH  052%=      5-min Rain = 0
KLA1 180259Z 10004KT 14/04 A301 RMK A01 T01410043  RH  051%=      5-min Rain = 0
KLA1 180300Z 11005KT 14/04 A301 RMK A01 T01410043  RH  052%=      5-min Rain = 0
KLA1 180301Z 11005KT 14/04 A301 RMK A01 T01410043  RH  052%=      5-min Rain = 0
KLA1 180302Z 11005KT 14/04 A301 RMK A01 T01410044  RH  052%=      5-min Rain = 0
KLA1 180303Z 11004KT 14/04 A301 RMK A01 T01400044  RH  052%=      5-min Rain = 0
KLA1 180304Z 12005KT 14/04 A301 RMK A01 T01400044  RH  052%=      5-min Rain = 0
KLA1 180305Z 12004KT 14/04 A301 RMK A01 T01390044  RH  053%=      5-min Rain = 0
KLA1 180306Z 12004KT 14/05 A301 RMK A01 T01390045  RH  053%=      5-min Rain = 0
KLA1 180307Z 12005KT 14/05 A301 RMK A01 T01390045  RH  053%=      5-min Rain = 0
KLA1 180308Z 12004KT 14/04 A301 RMK A01 T01380044  RH  053%=      5-min Rain = 0
KLA1 180309Z 12003KT 14/04 A301 RMK A01 T01380044  RH  053%=      5-min Rain = 0
KLA1 180310Z 13001KT 14/05 A301 RMK A01 T01360048  RH  055%=      5-min Rain = 0
KLA1 180311Z 09000KT 13/05 A301 RMK A01 T01280050  RH  059%=      5-min Rain = 0
KLA1 180312Z 11001KT 12/05 A301 RMK A01 T01210049  RH  062%=      5-min Rain = 0
KLA1 180313Z 10001KT 12/05 A301 RMK A01 T01190047  RH  061%=      5-min Rain = 0
KLA1 180314Z 19001KT 12/05 A301 RMK A01 T01190045  RH  060%=      5-min Rain = 0
KLA1 180315Z 14001KT 12/05 A301 RMK A01 T01220046  RH  060%=      5-min Rain = 0
KLA1 180316Z 13002KT 12/05 A301 RMK A01 T01220047  RH  060%=      5-min Rain = 0
KLA1 180317Z 16002KT 12/05 A301 RMK A01 T01230047  RH  060%=      5-min Rain = 0
KLA1 180318Z 13002KT 12/05 A301 RMK A01 T01220048  RH  060%=      5-min Rain = 0
KLA1 180319Z 14002KT 12/05 A301 RMK A01 T01220048  RH  061%=      5-min Rain = 0
KLA1 180320Z 14002KT 12/05 A301 RMK A01 T01210051  RH  062%=      5-min Rain = 0
KLA1 180321Z 14002KT 12/05 A301 RMK A01 T01190050  RH  063%=      5-min Rain = 0
KLA1 180322Z 14002KT 12/05 A301 RMK A01 T01170048  RH  062%=      5-min Rain = 0
KLA1 180323Z 14002KT 12/05 A301 RMK A01 T01160047  RH  063%=      5-min Rain = 0
KLA1 180324Z 13002KT 12/05 A301 RMK A01 T01150046  RH  062%=      5-min Rain = 0
KLA1 180325Z 13000KT 12/04 A301 RMK A01 T01150044  RH  062%=      5-min Rain = 0
KLA1 180326Z 12000KT 12/04 A301 RMK A01 T01160044  RH  061%=      5-min Rain = 0
KLA1 180327Z 26000KT 12/04 A301 RMK A01 T01180044  RH  060%=      5-min Rain = 0
KLA1 180328Z 26000KT 12/05 A301 RMK A01 T01190045  RH  061%=      5-min Rain = 0
KLA1 180329Z 00000KT 12/05 A301 RMK A01 T01180045  RH  061%=      5-min Rain = 0
KLA1 180330Z 00000KT 12/05 A301 RMK A01 T01180045  RH  061%=      5-min Rain = 0
KLA1 180331Z 14000KT 12/04 A301 RMK A01 T01170044  RH  061%=      5-min Rain = 0
KLA1 180332Z 00000KT 12/04 A301 RMK A01 T01170044  RH  061%=      5-min Rain = 0
KLA1 180333Z 00000KT 12/05 A301 RMK A01 T01170045  RH  061%=      5-min Rain = 0
KLA1 180334Z 00000KT 12/05 A301 RMK A01 T01170046  RH  062%=      5-min Rain = 0
KLA1 180335Z 00000KT 12/05 A301 RMK A01 T01150046  RH  062%=      5-min Rain = 0
KLA1 180336Z 00000KT 11/05 A301 RMK A01 T01140047  RH  063%=      5-min Rain = 0
KLA1 180337Z 10000KT 11/05 A301 RMK A01 T01120047  RH  064%=      5-min Rain = 0
KLA1 180338Z 09001KT 11/05 A3009 RMK A01 T01110045  RH  064%=      5-min Rain = 0
KLA1 180339Z 10001KT 11/04 A3009 RMK A01 T01120043  RH  063%=      5-min Rain = 0
KLA1 180340Z 11001KT 12/04 A3009 RMK A01 T01150044  RH  062%=      5-min Rain = 0
KLA1 180341Z 10001KT 12/05 A3009 RMK A01 T01150047  RH  063%=      5-min Rain = 0
KLA1 180342Z 10002KT 11/04 A3009 RMK A01 T01140043  RH  062%=      5-min Rain = 0
KLA1 180343Z 08000KT 12/04 A3009 RMK A01 T01190041  RH  059%=      5-min Rain = 0
KLA1 180344Z 07002KT 12/04 A3009 RMK A01 T01220041  RH  058%=      5-min Rain = 0
KLA1 180345Z 08001KT 13/04 A3009 RMK A01 T01260041  RH  056%=      5-min Rain = 0
KLA1 180346Z 09001KT 13/05 A3009 RMK A01 T01280046  RH  057%=      5-min Rain = 0
KLA1 180347Z 07002KT 13/05 A3009 RMK A01 T01270045  RH  058%=      5-min Rain = 0
KLA1 180348Z 08004KT 13/04 A3009 RMK A01 T01260043  RH  057%=      5-min Rain = 0
KLA1 180349Z 10005KT 13/04 A3009 RMK A01 T01260043  RH  057%=      5-min Rain = 0
KLA1 180350Z 09005KT 13/04 A3009 RMK A01 T01270043  RH  057%=      5-min Rain = 0
KLA1 180351Z 10005KT 13/04 A3009 RMK A01 T01280043  RH  056%=      5-min Rain = 0
KLA1 180352Z 10006KT 13/04 A3009 RMK A01 T01290043  RH  056%=      5-min Rain = 0
KLA1 180353Z 10005KT 13/04 A3009 RMK A01 T01310044  RH  055%=      5-min Rain = 0
KLA1 180354Z 10006KT 13/04 A3009 RMK A01 T01330044  RH  055%=      5-min Rain = 0
KLA1 180355Z 10006KT 14/05 A3009 RMK A01 T01360045  RH  054%=      5-min Rain = 0
KLA1 180356Z 11006KT 14/04 A3009 RMK A01 T01370044  RH  053%=      5-min Rain = 0
KLA1 180357Z 11006KT 14/04 A3009 RMK A01 T01390044  RH  053%=      5-min Rain = 0
KLA1 180358Z 11006KT 14/04 A3009 RMK A01 T01410043  RH  052%=      5-min Rain = 0
KLA1 180359Z 11006KT 14/04 A3009 RMK A01 T01430044  RH  051%=      5-min Rain = 0
KLA1 180400Z 10004KT 15/04 A3009 RMK A01 T01450043  RH  050%=      5-min Rain = 0
KLA1 180401Z 10004KT 15/04 A3009 RMK A01 T01470043  RH  050%=      5-min Rain = 0
KLA1 180402Z 11003KT 15/04 A3009 RMK A01 T01470043  RH  050%=      5-min Rain = 0
KLA1 180403Z 10000KT 15/05 A3009 RMK A01 T01460046  RH  051%=      5-min Rain = 0
KLA1 180404Z 27001KT 14/05 A3009 RMK A01 T01390050  RH  055%=      5-min Rain = 0
KLA1 180405Z 29002KT 13/05 A3009 RMK A01 T01290051  RH  059%=      5-min Rain = 0
KLA1 180406Z 29004KT 12/05 A3009 RMK A01 T01200051  RH  063%=      5-min Rain = 0
KLA1 180407Z 29003KT 12/05 A3009 RMK A01 T01150050  RH  065%=      5-min Rain = 0
KLA1 180408Z 29002KT 11/05 A3009 RMK A01 T01110050  RH  066%=      5-min Rain = 0
KLA1 180409Z 26000KT 11/05 A3009 RMK A01 T01100048  RH  066%=      5-min Rain = 0
KLA1 180410Z 23001KT 11/05 A3009 RMK A01 T01100048  RH  065%=      5-min Rain = 0
KLA1 180411Z 19001KT 11/05 A3009 RMK A01 T01120048  RH  065%=      5-min Rain = 0
KLA1 180412Z 13002KT 11/05 A3009 RMK A01 T01120049  RH  065%=      5-min Rain = 0
KLA1 180413Z 15001KT 11/05 A3009 RMK A01 T01120048  RH  065%=      5-min Rain = 0
KLA1 180414Z 16002KT 11/05 A3009 RMK A01 T01130046  RH  063%=      5-min Rain = 0
KLA1 180415Z 21002KT 12/05 A3009 RMK A01 T01150049  RH  064%=      5-min Rain = 0
KLA1 180416Z 24002KT 11/05 A3009 RMK A01 T01110050  RH  066%=      5-min Rain = 0
KLA1 180417Z 24002KT 11/05 A3009 RMK A01 T01070049  RH  067%=      5-min Rain = 0
KLA1 180418Z 22001KT 10/05 A3009 RMK A01 T01040050  RH  069%=      5-min Rain = 0
KLA1 180419Z 22001KT 10/05 A3009 RMK A01 T01030049  RH  069%=      5-min Rain = 0
KLA1 180420Z 21001KT 10/05 A3009 RMK A01 T01020048  RH  069%=      5-min Rain = 0
KLA1 180421Z 18001KT 10/05 A3009 RMK A01 T01010048  RH  069%=      5-min Rain = 0
KLA1 180422Z 15001KT 10/05 A3009 RMK A01 T01010048  RH  069%=      5-min Rain = 0
KLA1 180423Z 14002KT 10/05 A3009 RMK A01 T01010047  RH  069%=      5-min Rain = 0
KLA1 180424Z 13003KT 10/05 A3009 RMK A01 T01010047  RH  069%=      5-min Rain = 0
KLA1 180425Z 13002KT 10/05 A3009 RMK A01 T01040048  RH  068%=      5-min Rain = 0
KLA1 180426Z 14002KT 11/05 A301 RMK A01 T01050048  RH  068%=      5-min Rain = 0
KLA1 180427Z 13001KT 11/05 A301 RMK A01 T01050048  RH  067%=      5-min Rain = 0
KLA1 180428Z 12001KT 11/05 A301 RMK A01 T01050048  RH  068%=      5-min Rain = 0
KLA1 180429Z 14001KT 11/05 A301 RMK A01 T01050048  RH  068%=      5-min Rain = 0
KLA1 180430Z 22000KT 11/05 A301 RMK A01 T01050048  RH  068%=      5-min Rain = 0
KLA1 180431Z 29001KT 11/05 A301 RMK A01 T01050049  RH  068%=      5-min Rain = 0
KLA1 180432Z 28001KT 11/05 A301 RMK A01 T01050049  RH  068%=      5-min Rain = 0
KLA1 180433Z 00000KT 11/05 A301 RMK A01 T01050048  RH  068%=      5-min Rain = 0
KLA1 180434Z 26000KT 11/05 A301 RMK A01 T01050048  RH  068%=      5-min Rain = 0
KLA1 180435Z 27000KT 11/05 A301 RMK A01 T01060048  RH  067%=      5-min Rain = 0
KLA1 180436Z 27000KT 11/05 A301 RMK A01 T01060049  RH  068%=      5-min Rain = 0
KLA1 180437Z 28001KT 11/05 A301 RMK A01 T01070049  RH  068%=      5-min Rain = 0
KLA1 180438Z 32001KT 11/05 A301 RMK A01 T01070049  RH  067%=      5-min Rain = 0
KLA1 180439Z 29002KT 11/05 A301 RMK A01 T01070049  RH  067%=      5-min Rain = 0
KLA1 180440Z 29002KT 11/05 A301 RMK A01 T01070049  RH  067%=      5-min Rain = 0
KLA1 180441Z 29001KT 11/05 A301 RMK A01 T01070048  RH  067%=      5-min Rain = 0
KLA1 180442Z 28002KT 11/05 A301 RMK A01 T01080047  RH  066%=      5-min Rain = 0
KLA1 180443Z 00000KT 11/05 A301 RMK A01 T01100046  RH  065%=      5-min Rain = 0
KLA1 180444Z 13002KT 11/05 A301 RMK A01 T01120046  RH  064%=      5-min Rain = 0
KLA1 180445Z 10001KT 11/05 A301 RMK A01 T01140046  RH  063%=      5-min Rain = 0
KLA1 180446Z 10002KT 12/05 A301 RMK A01 T01170047  RH  062%=      5-min Rain = 0
KLA1 180447Z 09001KT 12/05 A301 RMK A01 T01190047  RH  061%=      5-min Rain = 0
KLA1 180448Z 11000KT 12/05 A301 RMK A01 T01200049  RH  062%=      5-min Rain = 0
KLA1 180449Z 00000KT 12/05 A301 RMK A01 T01200049  RH  061%=      5-min Rain = 0
KLA1 180450Z 00000KT 12/05 A3011 RMK A01 T01200048  RH  061%=      5-min Rain = 0
KLA1 180451Z 25000KT 12/05 A3011 RMK A01 T01200050  RH  062%=      5-min Rain = 0
KLA1 180452Z 29000KT 12/05 A3011 RMK A01 T01190049  RH  062%=      5-min Rain = 0
KLA1 180453Z 29000KT 12/05 A3011 RMK A01 T01190047  RH  062%=      5-min Rain = 0
KLA1 180454Z 29000KT 12/05 A3011 RMK A01 T01190046  RH  061%=      5-min Rain = 0
KLA1 180455Z 11000KT 12/05 A3011 RMK A01 T01210048  RH  061%=      5-min Rain = 0
KLA1 180456Z 12001KT 12/05 A3011 RMK A01 T01200047  RH  061%=      5-min Rain = 0
KLA1 180457Z 24000KT 12/05 A3011 RMK A01 T01210046  RH  060%=      5-min Rain = 0
KLA1 180458Z 26001KT 12/05 A3011 RMK A01 T01220046  RH  060%=      5-min Rain = 0
KLA1 180459Z 24001KT 12/05 A3011 RMK A01 T01220047  RH  060%=      5-min Rain = 0
KLA1 180500Z 26000KT 12/05 A301 RMK A01 T01210048  RH  061%=      5-min Rain = 0
KLA1 180501Z 26000KT 12/05 A301 RMK A01 T01210047  RH  061%=      5-min Rain = 0
KLA1 180502Z 25000KT 12/05 A301 RMK A01 T01200047  RH  061%=      5-min Rain = 0
KLA1 180503Z 26001KT 12/05 A301 RMK A01 T01200046  RH  060%=      5-min Rain = 0
KLA1 180504Z 26000KT 12/05 A3011 RMK A01 T01210046  RH  060%=      5-min Rain = 0
KLA1 180505Z 26000KT 12/05 A3011 RMK A01 T01210045  RH  060%=      5-min Rain = 0
KLA1 180506Z 26001KT 12/05 A3011 RMK A01 T01220047  RH  060%=      5-min Rain = 0
KLA1 180507Z 25001KT 12/05 A3011 RMK A01 T01210048  RH  061%=      5-min Rain = 0
KLA1 180508Z 26001KT 12/05 A3011 RMK A01 T01200048  RH  062%=      5-min Rain = 0
KLA1 180509Z 25001KT 12/05 A3011 RMK A01 T01190048  RH  062%=      5-min Rain = 0
KLA1 180510Z 25000KT 12/05 A3011 RMK A01 T01190048  RH  062%=      5-min Rain = 0
KLA1 180511Z 00000KT 12/05 A3011 RMK A01 T01190047  RH  061%=      5-min Rain = 0
KLA1 180512Z 00000KT 12/05 A3011 RMK A01 T01180047  RH  061%=      5-min Rain = 0
KLA1 180513Z 25000KT 12/05 A3011 RMK A01 T01180048  RH  062%=      5-min Rain = 0
KLA1 180514Z 25000KT 12/05 A3011 RMK A01 T01180048  RH  062%=      5-min Rain = 0
KLA1 180515Z 00000KT 12/05 A3011 RMK A01 T01170050  RH  063%=      5-min Rain = 0
KLA1 180516Z 00000KT 12/05 A3011 RMK A01 T01160049  RH  063%=      5-min Rain = 0
KLA1 180517Z 32000KT 12/05 A3011 RMK A01 T01160046  RH  062%=      5-min Rain = 0
KLA1 180518Z 00000KT 12/05 A3011 RMK A01 T01160046  RH  063%=      5-min Rain = 0
KLA1 180519Z 00000KT 12/05 A3011 RMK A01 T01150047  RH  063%=      5-min Rain = 0
KLA1 180520Z 00000KT 11/05 A3011 RMK A01 T01140047  RH  063%=      5-min Rain = 0
KLA1 180521Z 00000KT 11/05 A3011 RMK A01 T01130047  RH  064%=      5-min Rain = 0
KLA1 180522Z 00000KT 11/05 A3011 RMK A01 T01130047  RH  064%=      5-min Rain = 0
KLA1 180523Z 00000KT 11/05 A3011 RMK A01 T01120049  RH  065%=      5-min Rain = 0
KLA1 180524Z 00000KT 11/05 A3011 RMK A01 T01120049  RH  065%=      5-min Rain = 0
KLA1 180525Z 00000KT 11/05 A3011 RMK A01 T01120048  RH  065%=      5-min Rain = 0
KLA1 180526Z 28001KT 11/05 A3011 RMK A01 T01120051  RH  066%=      5-min Rain = 0
KLA1 180527Z 28002KT 11/05 A3011 RMK A01 T01100052  RH  067%=      5-min Rain = 0
KLA1 180528Z 29001KT 11/05 A3011 RMK A01 T01090050  RH  067%=      5-min Rain = 0
KLA1 180529Z 29000KT 11/05 A3011 RMK A01 T01090049  RH  066%=      5-min Rain = 0
KLA1 180530Z 00000KT 11/05 A3011 RMK A01 T01090050  RH  067%=      5-min Rain = 0
KLA1 180531Z 00000KT 11/05 A3011 RMK A01 T01100052  RH  068%=      5-min Rain = 0
KLA1 180532Z 00000KT 11/05 A3011 RMK A01 T01090050  RH  067%=      5-min Rain = 0
KLA1 180533Z 00000KT 11/05 A3011 RMK A01 T01090052  RH  068%=      5-min Rain = 0
KLA1 180534Z 00000KT 11/05 A3011 RMK A01 T01070053  RH  069%=      5-min Rain = 0
KLA1 180535Z 00000KT 11/05 A3011 RMK A01 T01060051  RH  068%=      5-min Rain = 0
KLA1 180536Z 00000KT 11/05 A3011 RMK A01 T01050050  RH  069%=      5-min Rain = 0
KLA1 180537Z 00000KT 11/05 A3011 RMK A01 T01050048  RH  068%=      5-min Rain = 0
KLA1 180538Z 00000KT 11/05 A3011 RMK A01 T01050048  RH  068%=      5-min Rain = 0
KLA1 180539Z 06000KT 11/05 A3011 RMK A01 T01060048  RH  067%=      5-min Rain = 0
KLA1 180540Z 04001KT 11/05 A3011 RMK A01 T01070048  RH  067%=      5-min Rain = 0
KLA1 180541Z 05001KT 11/05 A301 RMK A01 T01080050  RH  067%=      5-min Rain = 0
KLA1 180542Z 02000KT 11/06 A301 RMK A01 T01090055  RH  069%=      5-min Rain = 0
KLA1 180543Z 03001KT 11/06 A301 RMK A01 T01080055  RH  070%=      5-min Rain = 0
KLA1 180544Z 06000KT 11/06 A301 RMK A01 T01070056  RH  070%=      5-min Rain = 0
KLA1 180545Z 00000KT 11/06 A301 RMK A01 T01060055  RH  071%=      5-min Rain = 0
KLA1 180546Z 00000KT 11/06 A301 RMK A01 T01060055  RH  071%=      5-min Rain = 0
KLA1 180547Z 00000KT 11/06 A301 RMK A01 T01060055  RH  071%=      5-min Rain = 0
KLA1 180548Z 00000KT 10/05 A301 RMK A01 T01040054  RH  071%=      5-min Rain = 0
KLA1 180549Z 00000KT 10/06 A301 RMK A01 T01040055  RH  072%=      5-min Rain = 0
KLA1 180550Z 25000KT 10/06 A301 RMK A01 T01030057  RH  073%=      5-min Rain = 0
KLA1 180551Z 25000KT 10/06 A301 RMK A01 T01010055  RH  073%=      5-min Rain = 0
KLA1 180552Z 00000KT 10/05 A301 RMK A01 T01000053  RH  072%=      5-min Rain = 0
KLA1 180553Z 00000KT 10/05 A301 RMK A01 T01000053  RH  073%=      5-min Rain = 0
KLA1 180554Z 00000KT 10/05 A301 RMK A01 T01000053  RH  073%=      5-min Rain = 0
KLA1 180555Z 26000KT 10/05 A301 RMK A01 T00990053  RH  073%=      5-min Rain = 0
KLA1 180556Z 26000KT 10/05 A301 RMK A01 T00980053  RH  074%=      5-min Rain = 0
KLA1 180557Z 27000KT 10/05 A301 RMK A01 T00950053  RH  075%=      5-min Rain = 0
KLA1 180558Z 27002KT 09/05 A301 RMK A01 T00930054  RH  076%=      5-min Rain = 0
KLA1 180559Z 25001KT 09/05 A301 RMK A01 T00920054  RH  077%=      5-min Rain = 0

Page generated in 0.1213 seconds.